<?xml version="1.0" encoding="UTF-8"?>
<gpx version="1.1" creator="2bulu-scraper" xmlns="http://www.topografix.com/GPX/1/1">
  <metadata><name>泸州纳溪擦耳岩徒步环线</name><desc>source: 2bulu.com trackId=76121933; exported 2026-09-01T14:47:41.047Z</desc>
    <bounds minlat="28.730943" minlon="105.268996" maxlat="28.741315" maxlon="105.286625"/>
    <link href="https://www.2bulu.com/track/t-CwnqCHnZbP%252Fp%252FR2KBg5Tzw%253D%253D.htm"><text>2bulu 源页面</text></link>
  </metadata>

  <trk><name>泸州纳溪擦耳岩徒步环线</name>
      <trkseg>
        <trkpt lat="28.74129" lon="105.285166"><ele>258.19052</ele><time>2025-12-13T21:21:52.000Z</time></trkpt>
        <trkpt lat="28.741244" lon="105.285136"><ele>258.8629</ele><time>2025-12-13T21:22:06.000Z</time></trkpt>
        <trkpt lat="28.74128" lon="105.285106"><ele>258.9377</ele><time>2025-12-13T21:22:15.000Z</time></trkpt>
        <trkpt lat="28.741226" lon="105.285111"><ele>259.1926</ele><time>2025-12-13T21:22:28.000Z</time></trkpt>
        <trkpt lat="28.74118" lon="105.285101"><ele>261.4876</ele><time>2025-12-13T21:22:33.000Z</time></trkpt>
        <trkpt lat="28.741134" lon="105.285091"><ele>262.07578</ele><time>2025-12-13T21:22:37.000Z</time></trkpt>
        <trkpt lat="28.741081" lon="105.285075"><ele>262.13162</ele><time>2025-12-13T21:22:42.000Z</time></trkpt>
        <trkpt lat="28.741035" lon="105.285055"><ele>263.00372</ele><time>2025-12-13T21:22:47.000Z</time></trkpt>
        <trkpt lat="28.740988" lon="105.285027"><ele>263.62143</ele><time>2025-12-13T21:22:55.000Z</time></trkpt>
        <trkpt lat="28.740933" lon="105.285019"><ele>264.91776</ele><time>2025-12-13T21:23:03.000Z</time></trkpt>
        <trkpt lat="28.74088" lon="105.285015"><ele>265.43018</ele><time>2025-12-13T21:23:10.000Z</time></trkpt>
        <trkpt lat="28.740835" lon="105.28503"><ele>267.46945</ele><time>2025-12-13T21:24:14.000Z</time></trkpt>
        <trkpt lat="28.740795" lon="105.285005"><ele>268.37247</ele><time>2025-12-13T21:24:24.000Z</time></trkpt>
        <trkpt lat="28.740749" lon="105.28502"><ele>269.57507</ele><time>2025-12-13T21:24:40.000Z</time></trkpt>
        <trkpt lat="28.740704" lon="105.285022"><ele>270.2346</ele><time>2025-12-13T21:24:49.000Z</time></trkpt>
        <trkpt lat="28.740658" lon="105.285011"><ele>271.5481</ele><time>2025-12-13T21:24:59.000Z</time></trkpt>
        <trkpt lat="28.740606" lon="105.285022"><ele>272.4019</ele><time>2025-12-13T21:25:05.000Z</time></trkpt>
        <trkpt lat="28.740561" lon="105.285023"><ele>272.82364</ele><time>2025-12-13T21:25:10.000Z</time></trkpt>
        <trkpt lat="28.740516" lon="105.285034"><ele>273.63922</ele><time>2025-12-13T21:25:16.000Z</time></trkpt>
        <trkpt lat="28.740472" lon="105.28505"><ele>274.90686</ele><time>2025-12-13T21:25:22.000Z</time></trkpt>
        <trkpt lat="28.740433" lon="105.285082"><ele>276.22168</ele><time>2025-12-13T21:25:30.000Z</time></trkpt>
        <trkpt lat="28.740387" lon="105.285096"><ele>277.02478</ele><time>2025-12-13T21:25:38.000Z</time></trkpt>
        <trkpt lat="28.740335" lon="105.285105"><ele>277.5662</ele><time>2025-12-13T21:25:46.000Z</time></trkpt>
        <trkpt lat="28.740282" lon="105.285114"><ele>278.75122</ele><time>2025-12-13T21:25:52.000Z</time></trkpt>
        <trkpt lat="28.740235" lon="105.285111"><ele>280.64032</ele><time>2025-12-13T21:26:05.000Z</time></trkpt>
        <trkpt lat="28.740186" lon="105.285117"><ele>280.8355</ele><time>2025-12-13T21:26:18.000Z</time></trkpt>
        <trkpt lat="28.740132" lon="105.285111"><ele>283.06354</ele><time>2025-12-13T21:26:29.000Z</time></trkpt>
        <trkpt lat="28.740082" lon="105.285119"><ele>283.48703</ele><time>2025-12-13T21:26:37.000Z</time></trkpt>
        <trkpt lat="28.740034" lon="105.28512"><ele>285.58414</ele><time>2025-12-13T21:26:44.000Z</time></trkpt>
        <trkpt lat="28.739979" lon="105.285106"><ele>286.34805</ele><time>2025-12-13T21:26:52.000Z</time></trkpt>
        <trkpt lat="28.739932" lon="105.285089"><ele>287.08078</ele><time>2025-12-13T21:26:59.000Z</time></trkpt>
        <trkpt lat="28.739887" lon="105.285085"><ele>288.0271</ele><time>2025-12-13T21:27:06.000Z</time></trkpt>
        <trkpt lat="28.739834" lon="105.285082"><ele>288.7618</ele><time>2025-12-13T21:27:13.000Z</time></trkpt>
        <trkpt lat="28.739789" lon="105.285076"><ele>289.4001</ele><time>2025-12-13T21:27:20.000Z</time></trkpt>
        <trkpt lat="28.739742" lon="105.285058"><ele>289.9912</ele><time>2025-12-13T21:27:28.000Z</time></trkpt>
        <trkpt lat="28.739698" lon="105.285045"><ele>291.15613</ele><time>2025-12-13T21:27:37.000Z</time></trkpt>
        <trkpt lat="28.739647" lon="105.28505"><ele>292.28732</ele><time>2025-12-13T21:27:46.000Z</time></trkpt>
        <trkpt lat="28.7396" lon="105.285039"><ele>294.07626</ele><time>2025-12-13T21:27:54.000Z</time></trkpt>
        <trkpt lat="28.73955" lon="105.285031"><ele>296.5846</ele><time>2025-12-13T21:28:03.000Z</time></trkpt>
        <trkpt lat="28.739501" lon="105.285024"><ele>298.20215</ele><time>2025-12-13T21:28:13.000Z</time></trkpt>
        <trkpt lat="28.739457" lon="105.285004"><ele>301.6117</ele><time>2025-12-13T21:28:26.000Z</time></trkpt>
        <trkpt lat="28.739409" lon="105.285006"><ele>302.97214</ele><time>2025-12-13T21:28:37.000Z</time></trkpt>
        <trkpt lat="28.739364" lon="105.284997"><ele>304.5653</ele><time>2025-12-13T21:28:47.000Z</time></trkpt>
        <trkpt lat="28.739318" lon="105.285001"><ele>306.49963</ele><time>2025-12-13T21:28:56.000Z</time></trkpt>
        <trkpt lat="28.73927" lon="105.284999"><ele>307.90497</ele><time>2025-12-13T21:29:07.000Z</time></trkpt>
        <trkpt lat="28.739224" lon="105.284998"><ele>309.58487</ele><time>2025-12-13T21:29:24.000Z</time></trkpt>
        <trkpt lat="28.73918" lon="105.284984"><ele>311.5699</ele><time>2025-12-13T21:29:34.000Z</time></trkpt>
        <trkpt lat="28.739138" lon="105.284966"><ele>312.77768</ele><time>2025-12-13T21:29:54.000Z</time></trkpt>
        <trkpt lat="28.739091" lon="105.284975"><ele>314.63013</ele><time>2025-12-13T21:30:10.000Z</time></trkpt>
        <trkpt lat="28.73904" lon="105.284964"><ele>316.21738</ele><time>2025-12-13T21:30:33.000Z</time></trkpt>
        <trkpt lat="28.738995" lon="105.284968"><ele>317.6383</ele><time>2025-12-13T21:30:42.000Z</time></trkpt>
        <trkpt lat="28.738946" lon="105.284968"><ele>320.5964</ele><time>2025-12-13T21:30:53.000Z</time></trkpt>
        <trkpt lat="28.738898" lon="105.284971"><ele>322.0291</ele><time>2025-12-13T21:31:03.000Z</time></trkpt>
        <trkpt lat="28.738849" lon="105.28497"><ele>323.67892</ele><time>2025-12-13T21:31:17.000Z</time></trkpt>
        <trkpt lat="28.738804" lon="105.284961"><ele>325.24155</ele><time>2025-12-13T21:31:30.000Z</time></trkpt>
        <trkpt lat="28.738755" lon="105.284967"><ele>326.6954</ele><time>2025-12-13T21:31:39.000Z</time></trkpt>
        <trkpt lat="28.738708" lon="105.284969"><ele>328.06293</ele><time>2025-12-13T21:31:51.000Z</time></trkpt>
        <trkpt lat="28.738662" lon="105.284969"><ele>329.4845</ele><time>2025-12-13T21:32:01.000Z</time></trkpt>
        <trkpt lat="28.738619" lon="105.284988"><ele>330.90012</ele><time>2025-12-13T21:32:59.000Z</time></trkpt>
        <trkpt lat="28.738574" lon="105.284984"><ele>333.05054</ele><time>2025-12-13T21:33:23.000Z</time></trkpt>
        <trkpt lat="28.738531" lon="105.285002"><ele>334.35626</ele><time>2025-12-13T21:33:38.000Z</time></trkpt>
        <trkpt lat="28.738497" lon="105.285044"><ele>335.67917</ele><time>2025-12-13T21:34:11.000Z</time></trkpt>
        <trkpt lat="28.738496" lon="105.285052"><ele>335.66782</ele><time>2025-12-13T21:54:57.000Z</time></trkpt>
        <trkpt lat="28.738478" lon="105.285005"><ele>336.44327</ele><time>2025-12-13T21:55:13.000Z</time></trkpt>
        <trkpt lat="28.738524" lon="105.284985"><ele>334.5886</ele><time>2025-12-13T21:55:47.000Z</time></trkpt>
        <trkpt lat="28.738485" lon="105.285012"><ele>335.89847</ele><time>2025-12-13T21:55:55.000Z</time></trkpt>
        <trkpt lat="28.738442" lon="105.284994"><ele>337.8211</ele><time>2025-12-13T21:56:45.000Z</time></trkpt>
        <trkpt lat="28.738395" lon="105.284998"><ele>340.09244</ele><time>2025-12-13T21:57:04.000Z</time></trkpt>
        <trkpt lat="28.738354" lon="105.285024"><ele>341.49</ele><time>2025-12-13T21:57:25.000Z</time></trkpt>
        <trkpt lat="28.738314" lon="105.285052"><ele>342.5657</ele><time>2025-12-13T21:57:49.000Z</time></trkpt>
        <trkpt lat="28.738268" lon="105.285052"><ele>344.637</ele><time>2025-12-13T21:58:09.000Z</time></trkpt>
        <trkpt lat="28.738222" lon="105.28507"><ele>346.6769</ele><time>2025-12-13T21:58:45.000Z</time></trkpt>
        <trkpt lat="28.738177" lon="105.285059"><ele>348.30838</ele><time>2025-12-13T21:59:08.000Z</time></trkpt>
        <trkpt lat="28.738134" lon="105.285043"><ele>350.18735</ele><time>2025-12-13T21:59:48.000Z</time></trkpt>
        <trkpt lat="28.738088" lon="105.285034"><ele>352.77676</ele><time>2025-12-13T22:00:37.000Z</time></trkpt>
        <trkpt lat="28.738042" lon="105.285024"><ele>354.6061</ele><time>2025-12-13T22:00:52.000Z</time></trkpt>
        <trkpt lat="28.738014" lon="105.28498"><ele>356.4435</ele><time>2025-12-13T22:01:25.000Z</time></trkpt>
        <trkpt lat="28.737969" lon="105.284984"><ele>359.26468</ele><time>2025-12-13T22:03:10.000Z</time></trkpt>
        <trkpt lat="28.737923" lon="105.28499"><ele>360.3912</ele><time>2025-12-13T22:04:10.000Z</time></trkpt>
        <trkpt lat="28.737878" lon="105.285019"><ele>362.21634</ele><time>2025-12-13T22:04:17.000Z</time></trkpt>
        <trkpt lat="28.737835" lon="105.285048"><ele>363.0473</ele><time>2025-12-13T22:04:25.000Z</time></trkpt>
        <trkpt lat="28.737833" lon="105.284995"><ele>365.85727</ele><time>2025-12-13T22:04:41.000Z</time></trkpt>
        <trkpt lat="28.737843" lon="105.284937"><ele>366.91312</ele><time>2025-12-13T22:04:55.000Z</time></trkpt>
        <trkpt lat="28.737796" lon="105.284924"><ele>367.4036</ele><time>2025-12-13T22:05:04.000Z</time></trkpt>
        <trkpt lat="28.737746" lon="105.284917"><ele>369.9818</ele><time>2025-12-13T22:05:24.000Z</time></trkpt>
        <trkpt lat="28.737715" lon="105.284957"><ele>370.6505</ele><time>2025-12-13T22:05:32.000Z</time></trkpt>
        <trkpt lat="28.737675" lon="105.284989"><ele>372.74692</ele><time>2025-12-13T22:05:44.000Z</time></trkpt>
        <trkpt lat="28.737622" lon="105.284991"><ele>373.79803</ele><time>2025-12-13T22:05:57.000Z</time></trkpt>
        <trkpt lat="28.737576" lon="105.284995"><ele>375.48108</ele><time>2025-12-13T22:06:12.000Z</time></trkpt>
        <trkpt lat="28.737529" lon="105.285009"><ele>377.43283</ele><time>2025-12-13T22:06:26.000Z</time></trkpt>
        <trkpt lat="28.737486" lon="105.285031"><ele>377.6718</ele><time>2025-12-13T22:06:34.000Z</time></trkpt>
        <trkpt lat="28.737451" lon="105.285066"><ele>378.3395</ele><time>2025-12-13T22:07:13.000Z</time></trkpt>
        <trkpt lat="28.737404" lon="105.285056"><ele>379.93475</ele><time>2025-12-13T22:07:25.000Z</time></trkpt>
        <trkpt lat="28.737357" lon="105.28505"><ele>382.69696</ele><time>2025-12-13T22:07:36.000Z</time></trkpt>
        <trkpt lat="28.737311" lon="105.285044"><ele>385.92313</ele><time>2025-12-13T22:08:31.000Z</time></trkpt>
        <trkpt lat="28.737268" lon="105.285063"><ele>388.15195</ele><time>2025-12-13T22:08:47.000Z</time></trkpt>
        <trkpt lat="28.737222" lon="105.285056"><ele>389.49957</ele><time>2025-12-13T22:09:02.000Z</time></trkpt>
        <trkpt lat="28.737177" lon="105.285062"><ele>391.09235</ele><time>2025-12-13T22:09:12.000Z</time></trkpt>
        <trkpt lat="28.737126" lon="105.285064"><ele>394.30933</ele><time>2025-12-13T22:09:33.000Z</time></trkpt>
        <trkpt lat="28.737078" lon="105.285064"><ele>396.09058</ele><time>2025-12-13T22:09:43.000Z</time></trkpt>
        <trkpt lat="28.737028" lon="105.285077"><ele>398.4336</ele><time>2025-12-13T22:10:01.000Z</time></trkpt>
        <trkpt lat="28.736978" lon="105.28508"><ele>400.4926</ele><time>2025-12-13T22:10:21.000Z</time></trkpt>
        <trkpt lat="28.736933" lon="105.285075"><ele>402.55408</ele><time>2025-12-13T22:10:32.000Z</time></trkpt>
        <trkpt lat="28.736902" lon="105.285036"><ele>404.56805</ele><time>2025-12-13T22:10:50.000Z</time></trkpt>
        <trkpt lat="28.736926" lon="105.285081"><ele>405.5429</ele><time>2025-12-13T22:12:45.000Z</time></trkpt>
        <trkpt lat="28.736884" lon="105.28506"><ele>405.4358</ele><time>2025-12-13T22:14:03.000Z</time></trkpt>
        <trkpt lat="28.736837" lon="105.285074"><ele>408.92026</ele><time>2025-12-13T22:14:37.000Z</time></trkpt>
        <trkpt lat="28.736795" lon="105.2851"><ele>409.61252</ele><time>2025-12-13T22:14:47.000Z</time></trkpt>
        <trkpt lat="28.736745" lon="105.285109"><ele>411.4436</ele><time>2025-12-13T22:15:05.000Z</time></trkpt>
        <trkpt lat="28.736695" lon="105.285128"><ele>413.08698</ele><time>2025-12-13T22:15:12.000Z</time></trkpt>
        <trkpt lat="28.736658" lon="105.28516"><ele>414.14252</ele><time>2025-12-13T22:15:18.000Z</time></trkpt>
        <trkpt lat="28.736616" lon="105.28519"><ele>414.61465</ele><time>2025-12-13T22:15:23.000Z</time></trkpt>
        <trkpt lat="28.736575" lon="105.28522"><ele>415.76913</ele><time>2025-12-13T22:15:28.000Z</time></trkpt>
        <trkpt lat="28.736536" lon="105.285248"><ele>416.3441</ele><time>2025-12-13T22:15:44.000Z</time></trkpt>
        <trkpt lat="28.736489" lon="105.285284"><ele>417.6761</ele><time>2025-12-13T22:15:50.000Z</time></trkpt>
        <trkpt lat="28.736449" lon="105.285321"><ele>418.2081</ele><time>2025-12-13T22:16:00.000Z</time></trkpt>
        <trkpt lat="28.736409" lon="105.285347"><ele>418.60464</ele><time>2025-12-13T22:16:12.000Z</time></trkpt>
        <trkpt lat="28.736364" lon="105.285371"><ele>420.10385</ele><time>2025-12-13T22:16:27.000Z</time></trkpt>
        <trkpt lat="28.73632" lon="105.285401"><ele>421.13452</ele><time>2025-12-13T22:16:34.000Z</time></trkpt>
        <trkpt lat="28.736283" lon="105.285438"><ele>423.0328</ele><time>2025-12-13T22:16:44.000Z</time></trkpt>
        <trkpt lat="28.736233" lon="105.285463"><ele>422.60437</ele><time>2025-12-13T22:16:50.000Z</time></trkpt>
        <trkpt lat="28.736193" lon="105.28549"><ele>425.43872</ele><time>2025-12-13T22:17:03.000Z</time></trkpt>
        <trkpt lat="28.736143" lon="105.285507"><ele>426.88022</ele><time>2025-12-13T22:17:10.000Z</time></trkpt>
        <trkpt lat="28.736097" lon="105.285533"><ele>428.91174</ele><time>2025-12-13T22:17:17.000Z</time></trkpt>
        <trkpt lat="28.736058" lon="105.285567"><ele>429.92438</ele><time>2025-12-13T22:17:23.000Z</time></trkpt>
        <trkpt lat="28.736018" lon="105.285593"><ele>430.93265</ele><time>2025-12-13T22:17:29.000Z</time></trkpt>
        <trkpt lat="28.735986" lon="105.28563"><ele>431.53995</ele><time>2025-12-13T22:17:34.000Z</time></trkpt>
        <trkpt lat="28.735948" lon="105.285661"><ele>432.2569</ele><time>2025-12-13T22:17:41.000Z</time></trkpt>
        <trkpt lat="28.735907" lon="105.2857"><ele>432.92575</ele><time>2025-12-13T22:17:46.000Z</time></trkpt>
        <trkpt lat="28.73587" lon="105.285731"><ele>433.4957</ele><time>2025-12-13T22:17:50.000Z</time></trkpt>
        <trkpt lat="28.735845" lon="105.285779"><ele>434.90393</ele><time>2025-12-13T22:17:54.000Z</time></trkpt>
        <trkpt lat="28.73582" lon="105.285828"><ele>434.57523</ele><time>2025-12-13T22:17:59.000Z</time></trkpt>
        <trkpt lat="28.735805" lon="105.285881"><ele>434.7265</ele><time>2025-12-13T22:18:04.000Z</time></trkpt>
        <trkpt lat="28.735787" lon="105.28593"><ele>433.6861</ele><time>2025-12-13T22:18:11.000Z</time></trkpt>
        <trkpt lat="28.735761" lon="105.285973"><ele>433.31418</ele><time>2025-12-13T22:18:17.000Z</time></trkpt>
        <trkpt lat="28.735722" lon="105.286007"><ele>432.6609</ele><time>2025-12-13T22:18:34.000Z</time></trkpt>
        <trkpt lat="28.73571" lon="105.28606"><ele>432.8664</ele><time>2025-12-13T22:18:39.000Z</time></trkpt>
        <trkpt lat="28.73568" lon="105.286103"><ele>433.61407</ele><time>2025-12-13T22:18:46.000Z</time></trkpt>
        <trkpt lat="28.735659" lon="105.286157"><ele>432.334</ele><time>2025-12-13T22:18:53.000Z</time></trkpt>
        <trkpt lat="28.735645" lon="105.286212"><ele>431.79767</ele><time>2025-12-13T22:19:06.000Z</time></trkpt>
        <trkpt lat="28.735631" lon="105.286262"><ele>431.2885</ele><time>2025-12-13T22:19:13.000Z</time></trkpt>
        <trkpt lat="28.735614" lon="105.28631"><ele>430.24274</ele><time>2025-12-13T22:19:20.000Z</time></trkpt>
        <trkpt lat="28.735593" lon="105.28636"><ele>430.10318</ele><time>2025-12-13T22:19:24.000Z</time></trkpt>
        <trkpt lat="28.735567" lon="105.286418"><ele>429.8627</ele><time>2025-12-13T22:19:31.000Z</time></trkpt>
        <trkpt lat="28.735552" lon="105.286469"><ele>430.99448</ele><time>2025-12-13T22:19:36.000Z</time></trkpt>
        <trkpt lat="28.735532" lon="105.286523"><ele>431.17065</ele><time>2025-12-13T22:19:42.000Z</time></trkpt>
        <trkpt lat="28.735525" lon="105.286574"><ele>431.8188</ele><time>2025-12-13T22:19:49.000Z</time></trkpt>
        <trkpt lat="28.735482" lon="105.286594"><ele>431.23877</ele><time>2025-12-13T22:19:57.000Z</time></trkpt>
        <trkpt lat="28.735444" lon="105.286625"><ele>433.27628</ele><time>2025-12-13T22:20:39.000Z</time></trkpt>
        <trkpt lat="28.735395" lon="105.286623"><ele>433.92538</ele><time>2025-12-13T22:20:48.000Z</time></trkpt>
        <trkpt lat="28.735376" lon="105.286576"><ele>437.82803</ele><time>2025-12-13T22:21:08.000Z</time></trkpt>
        <trkpt lat="28.735332" lon="105.286598"><ele>439.65408</ele><time>2025-12-13T22:21:15.000Z</time></trkpt>
        <trkpt lat="28.735292" lon="105.286625"><ele>440.55563</ele><time>2025-12-13T22:21:26.000Z</time></trkpt>
        <trkpt lat="28.735245" lon="105.286614"><ele>441.47803</ele><time>2025-12-13T22:21:37.000Z</time></trkpt>
        <trkpt lat="28.735196" lon="105.286605"><ele>440.9984</ele><time>2025-12-13T22:21:45.000Z</time></trkpt>
        <trkpt lat="28.735146" lon="105.286599"><ele>440.59702</ele><time>2025-12-13T22:21:52.000Z</time></trkpt>
        <trkpt lat="28.735103" lon="105.286577"><ele>440.24246</ele><time>2025-12-13T22:21:59.000Z</time></trkpt>
        <trkpt lat="28.735053" lon="105.286546"><ele>440.72552</ele><time>2025-12-13T22:22:18.000Z</time></trkpt>
        <trkpt lat="28.73501" lon="105.286524"><ele>440.27725</ele><time>2025-12-13T22:22:23.000Z</time></trkpt>
        <trkpt lat="28.734966" lon="105.286508"><ele>440.05417</ele><time>2025-12-13T22:22:29.000Z</time></trkpt>
        <trkpt lat="28.734918" lon="105.286488"><ele>439.97348</ele><time>2025-12-13T22:22:34.000Z</time></trkpt>
        <trkpt lat="28.734869" lon="105.286465"><ele>439.77002</ele><time>2025-12-13T22:22:39.000Z</time></trkpt>
        <trkpt lat="28.734826" lon="105.286438"><ele>439.1296</ele><time>2025-12-13T22:22:45.000Z</time></trkpt>
        <trkpt lat="28.734784" lon="105.28639"><ele>439.48264</ele><time>2025-12-13T22:22:51.000Z</time></trkpt>
        <trkpt lat="28.734741" lon="105.28636"><ele>438.5488</ele><time>2025-12-13T22:22:56.000Z</time></trkpt>
        <trkpt lat="28.734687" lon="105.286336"><ele>438.08105</ele><time>2025-12-13T22:23:01.000Z</time></trkpt>
        <trkpt lat="28.734639" lon="105.286316"><ele>438.78568</ele><time>2025-12-13T22:23:07.000Z</time></trkpt>
        <trkpt lat="28.734582" lon="105.286315"><ele>439.5939</ele><time>2025-12-13T22:23:12.000Z</time></trkpt>
        <trkpt lat="28.734532" lon="105.286339"><ele>438.1434</ele><time>2025-12-13T22:23:46.000Z</time></trkpt>
        <trkpt lat="28.734485" lon="105.28632"><ele>439.14703</ele><time>2025-12-13T22:23:51.000Z</time></trkpt>
        <trkpt lat="28.73444" lon="105.286326"><ele>439.79742</ele><time>2025-12-13T22:23:56.000Z</time></trkpt>
        <trkpt lat="28.734393" lon="105.286334"><ele>439.46783</ele><time>2025-12-13T22:24:03.000Z</time></trkpt>
        <trkpt lat="28.734348" lon="105.28633"><ele>441.3648</ele><time>2025-12-13T22:24:09.000Z</time></trkpt>
        <trkpt lat="28.734301" lon="105.286314"><ele>441.46213</ele><time>2025-12-13T22:24:16.000Z</time></trkpt>
        <trkpt lat="28.734256" lon="105.286298"><ele>442.98715</ele><time>2025-12-13T22:24:22.000Z</time></trkpt>
        <trkpt lat="28.734213" lon="105.28628"><ele>444.73596</ele><time>2025-12-13T22:24:28.000Z</time></trkpt>
        <trkpt lat="28.734177" lon="105.286245"><ele>446.30933</ele><time>2025-12-13T22:24:39.000Z</time></trkpt>
        <trkpt lat="28.734133" lon="105.286222"><ele>447.86838</ele><time>2025-12-13T22:24:46.000Z</time></trkpt>
        <trkpt lat="28.734095" lon="105.286182"><ele>449.6192</ele><time>2025-12-13T22:24:53.000Z</time></trkpt>
        <trkpt lat="28.734059" lon="105.286151"><ele>449.13834</ele><time>2025-12-13T22:24:59.000Z</time></trkpt>
        <trkpt lat="28.734015" lon="105.286125"><ele>449.84488</ele><time>2025-12-13T22:25:05.000Z</time></trkpt>
        <trkpt lat="28.733974" lon="105.286092"><ele>450.46838</ele><time>2025-12-13T22:25:14.000Z</time></trkpt>
        <trkpt lat="28.73394" lon="105.28605"><ele>450.34576</ele><time>2025-12-13T22:25:23.000Z</time></trkpt>
        <trkpt lat="28.733912" lon="105.286002"><ele>451.02518</ele><time>2025-12-13T22:25:29.000Z</time></trkpt>
        <trkpt lat="28.733898" lon="105.285944"><ele>452.44342</ele><time>2025-12-13T22:25:36.000Z</time></trkpt>
        <trkpt lat="28.733878" lon="105.285893"><ele>453.27982</ele><time>2025-12-13T22:25:42.000Z</time></trkpt>
        <trkpt lat="28.733853" lon="105.285838"><ele>454.20694</ele><time>2025-12-13T22:25:49.000Z</time></trkpt>
        <trkpt lat="28.733823" lon="105.285794"><ele>453.6002</ele><time>2025-12-13T22:25:55.000Z</time></trkpt>
        <trkpt lat="28.733807" lon="105.285739"><ele>453.32877</ele><time>2025-12-13T22:26:01.000Z</time></trkpt>
        <trkpt lat="28.733783" lon="105.285694"><ele>453.15195</ele><time>2025-12-13T22:26:07.000Z</time></trkpt>
        <trkpt lat="28.733765" lon="105.285645"><ele>451.43857</ele><time>2025-12-13T22:26:13.000Z</time></trkpt>
        <trkpt lat="28.733737" lon="105.285602"><ele>450.64008</ele><time>2025-12-13T22:26:20.000Z</time></trkpt>
        <trkpt lat="28.733702" lon="105.285558"><ele>448.9149</ele><time>2025-12-13T22:26:27.000Z</time></trkpt>
        <trkpt lat="28.733671" lon="105.285518"><ele>447.43744</ele><time>2025-12-13T22:26:34.000Z</time></trkpt>
        <trkpt lat="28.73364" lon="105.285475"><ele>446.8893</ele><time>2025-12-13T22:26:40.000Z</time></trkpt>
        <trkpt lat="28.733604" lon="105.285442"><ele>446.47665</ele><time>2025-12-13T22:26:45.000Z</time></trkpt>
        <trkpt lat="28.733571" lon="105.285402"><ele>446.91998</ele><time>2025-12-13T22:26:52.000Z</time></trkpt>
        <trkpt lat="28.733547" lon="105.285359"><ele>447.62482</ele><time>2025-12-13T22:26:57.000Z</time></trkpt>
        <trkpt lat="28.73351" lon="105.285312"><ele>449.08197</ele><time>2025-12-13T22:27:03.000Z</time></trkpt>
        <trkpt lat="28.733476" lon="105.28527"><ele>449.4143</ele><time>2025-12-13T22:27:09.000Z</time></trkpt>
        <trkpt lat="28.733436" lon="105.285234"><ele>450.15146</ele><time>2025-12-13T22:27:15.000Z</time></trkpt>
        <trkpt lat="28.733421" lon="105.285176"><ele>450.0862</ele><time>2025-12-13T22:27:22.000Z</time></trkpt>
        <trkpt lat="28.733449" lon="105.285133"><ele>449.36346</ele><time>2025-12-13T22:27:26.000Z</time></trkpt>
        <trkpt lat="28.733482" lon="105.285091"><ele>449.01538</ele><time>2025-12-13T22:27:31.000Z</time></trkpt>
        <trkpt lat="28.733521" lon="105.285057"><ele>448.66867</ele><time>2025-12-13T22:27:38.000Z</time></trkpt>
        <trkpt lat="28.73356" lon="105.285025"><ele>448.70386</ele><time>2025-12-13T22:27:43.000Z</time></trkpt>
        <trkpt lat="28.733593" lon="105.284988"><ele>448.85065</ele><time>2025-12-13T22:27:49.000Z</time></trkpt>
        <trkpt lat="28.733638" lon="105.284975"><ele>448.86172</ele><time>2025-12-13T22:27:54.000Z</time></trkpt>
        <trkpt lat="28.733669" lon="105.284938"><ele>449.5658</ele><time>2025-12-13T22:28:11.000Z</time></trkpt>
        <trkpt lat="28.733716" lon="105.284946"><ele>449.97528</ele><time>2025-12-13T22:28:24.000Z</time></trkpt>
        <trkpt lat="28.733754" lon="105.28491"><ele>450.79156</ele><time>2025-12-13T22:28:33.000Z</time></trkpt>
        <trkpt lat="28.733778" lon="105.284863"><ele>451.54037</ele><time>2025-12-13T22:28:40.000Z</time></trkpt>
        <trkpt lat="28.733785" lon="105.284808"><ele>451.67972</ele><time>2025-12-13T22:28:45.000Z</time></trkpt>
        <trkpt lat="28.733782" lon="105.284751"><ele>452.09387</ele><time>2025-12-13T22:28:51.000Z</time></trkpt>
        <trkpt lat="28.733789" lon="105.284699"><ele>453.18372</ele><time>2025-12-13T22:28:58.000Z</time></trkpt>
        <trkpt lat="28.733803" lon="105.284646"><ele>452.82916</ele><time>2025-12-13T22:29:06.000Z</time></trkpt>
        <trkpt lat="28.733817" lon="105.284589"><ele>452.8563</ele><time>2025-12-13T22:29:14.000Z</time></trkpt>
        <trkpt lat="28.733835" lon="105.28453"><ele>452.81693</ele><time>2025-12-13T22:29:20.000Z</time></trkpt>
        <trkpt lat="28.73386" lon="105.284482"><ele>452.69647</ele><time>2025-12-13T22:29:26.000Z</time></trkpt>
        <trkpt lat="28.73388" lon="105.284431"><ele>452.70126</ele><time>2025-12-13T22:29:33.000Z</time></trkpt>
        <trkpt lat="28.733901" lon="105.28438"><ele>452.7456</ele><time>2025-12-13T22:29:40.000Z</time></trkpt>
        <trkpt lat="28.733903" lon="105.284325"><ele>452.9953</ele><time>2025-12-13T22:29:46.000Z</time></trkpt>
        <trkpt lat="28.733929" lon="105.284277"><ele>454.09937</ele><time>2025-12-13T22:29:55.000Z</time></trkpt>
        <trkpt lat="28.73394" lon="105.284222"><ele>454.00513</ele><time>2025-12-13T22:30:03.000Z</time></trkpt>
        <trkpt lat="28.733963" lon="105.284173"><ele>453.7355</ele><time>2025-12-13T22:30:09.000Z</time></trkpt>
        <trkpt lat="28.733981" lon="105.284117"><ele>453.3922</ele><time>2025-12-13T22:30:15.000Z</time></trkpt>
        <trkpt lat="28.733991" lon="105.284063"><ele>453.85852</ele><time>2025-12-13T22:30:21.000Z</time></trkpt>
        <trkpt lat="28.733995" lon="105.284003"><ele>454.04935</ele><time>2025-12-13T22:30:27.000Z</time></trkpt>
        <trkpt lat="28.733992" lon="105.283949"><ele>453.47113</ele><time>2025-12-13T22:30:33.000Z</time></trkpt>
        <trkpt lat="28.733967" lon="105.283903"><ele>453.66248</ele><time>2025-12-13T22:30:43.000Z</time></trkpt>
        <trkpt lat="28.733967" lon="105.283847"><ele>453.74307</ele><time>2025-12-13T22:30:49.000Z</time></trkpt>
        <trkpt lat="28.733979" lon="105.283795"><ele>453.28983</ele><time>2025-12-13T22:30:55.000Z</time></trkpt>
        <trkpt lat="28.734006" lon="105.283745"><ele>453.20804</ele><time>2025-12-13T22:31:01.000Z</time></trkpt>
        <trkpt lat="28.734039" lon="105.283699"><ele>453.0753</ele><time>2025-12-13T22:31:07.000Z</time></trkpt>
        <trkpt lat="28.734078" lon="105.283668"><ele>453.8007</ele><time>2025-12-13T22:31:17.000Z</time></trkpt>
        <trkpt lat="28.734115" lon="105.283635"><ele>452.84323</ele><time>2025-12-13T22:31:24.000Z</time></trkpt>
        <trkpt lat="28.734128" lon="105.283578"><ele>453.3645</ele><time>2025-12-13T22:31:31.000Z</time></trkpt>
        <trkpt lat="28.734142" lon="105.283526"><ele>452.6547</ele><time>2025-12-13T22:31:37.000Z</time></trkpt>
        <trkpt lat="28.734144" lon="105.283471"><ele>452.69113</ele><time>2025-12-13T22:31:44.000Z</time></trkpt>
        <trkpt lat="28.734127" lon="105.283415"><ele>452.42184</ele><time>2025-12-13T22:31:52.000Z</time></trkpt>
        <trkpt lat="28.734123" lon="105.283364"><ele>452.1062</ele><time>2025-12-13T22:31:58.000Z</time></trkpt>
        <trkpt lat="28.734123" lon="105.283312"><ele>451.41864</ele><time>2025-12-13T22:32:06.000Z</time></trkpt>
        <trkpt lat="28.734128" lon="105.283258"><ele>450.88013</ele><time>2025-12-13T22:32:13.000Z</time></trkpt>
        <trkpt lat="28.734152" lon="105.28321"><ele>450.4093</ele><time>2025-12-13T22:32:28.000Z</time></trkpt>
        <trkpt lat="28.734151" lon="105.283158"><ele>449.3894</ele><time>2025-12-13T22:32:35.000Z</time></trkpt>
        <trkpt lat="28.734158" lon="105.283103"><ele>449.44876</ele><time>2025-12-13T22:32:41.000Z</time></trkpt>
        <trkpt lat="28.734144" lon="105.283052"><ele>449.6222</ele><time>2025-12-13T22:32:48.000Z</time></trkpt>
        <trkpt lat="28.734142" lon="105.282995"><ele>449.21985</ele><time>2025-12-13T22:32:55.000Z</time></trkpt>
        <trkpt lat="28.734139" lon="105.282944"><ele>449.7418</ele><time>2025-12-13T22:33:01.000Z</time></trkpt>
        <trkpt lat="28.734138" lon="105.282892"><ele>450.30325</ele><time>2025-12-13T22:33:07.000Z</time></trkpt>
        <trkpt lat="28.734123" lon="105.282842"><ele>451.10742</ele><time>2025-12-13T22:33:15.000Z</time></trkpt>
        <trkpt lat="28.734127" lon="105.282783"><ele>452.16702</ele><time>2025-12-13T22:33:21.000Z</time></trkpt>
        <trkpt lat="28.73415" lon="105.282733"><ele>452.73923</ele><time>2025-12-13T22:33:28.000Z</time></trkpt>
        <trkpt lat="28.734193" lon="105.282698"><ele>452.95352</ele><time>2025-12-13T22:33:35.000Z</time></trkpt>
        <trkpt lat="28.73423" lon="105.282661"><ele>452.9897</ele><time>2025-12-13T22:33:42.000Z</time></trkpt>
        <trkpt lat="28.734276" lon="105.282651"><ele>453.13165</ele><time>2025-12-13T22:33:48.000Z</time></trkpt>
        <trkpt lat="28.734324" lon="105.282628"><ele>453.20563</ele><time>2025-12-13T22:33:54.000Z</time></trkpt>
        <trkpt lat="28.73437" lon="105.282605"><ele>453.45685</ele><time>2025-12-13T22:34:01.000Z</time></trkpt>
        <trkpt lat="28.73441" lon="105.282579"><ele>453.90466</ele><time>2025-12-13T22:34:09.000Z</time></trkpt>
        <trkpt lat="28.734453" lon="105.282564"><ele>453.2382</ele><time>2025-12-13T22:34:15.000Z</time></trkpt>
        <trkpt lat="28.734499" lon="105.282578"><ele>453.3223</ele><time>2025-12-13T22:34:22.000Z</time></trkpt>
        <trkpt lat="28.734542" lon="105.282607"><ele>452.6303</ele><time>2025-12-13T22:34:34.000Z</time></trkpt>
        <trkpt lat="28.734565" lon="105.282653"><ele>452.28183</ele><time>2025-12-13T22:34:41.000Z</time></trkpt>
        <trkpt lat="28.734594" lon="105.2827"><ele>451.94177</ele><time>2025-12-13T22:34:47.000Z</time></trkpt>
        <trkpt lat="28.734627" lon="105.28274"><ele>451.7428</ele><time>2025-12-13T22:34:52.000Z</time></trkpt>
        <trkpt lat="28.73467" lon="105.282757"><ele>451.6974</ele><time>2025-12-13T22:34:57.000Z</time></trkpt>
        <trkpt lat="28.734717" lon="105.282768"><ele>451.37308</ele><time>2025-12-13T22:35:03.000Z</time></trkpt>
        <trkpt lat="28.734769" lon="105.282772"><ele>451.303</ele><time>2025-12-13T22:35:08.000Z</time></trkpt>
        <trkpt lat="28.734819" lon="105.282767"><ele>452.0341</ele><time>2025-12-13T22:35:14.000Z</time></trkpt>
        <trkpt lat="28.734866" lon="105.282766"><ele>451.9623</ele><time>2025-12-13T22:35:19.000Z</time></trkpt>
        <trkpt lat="28.734916" lon="105.282754"><ele>452.07852</ele><time>2025-12-13T22:35:25.000Z</time></trkpt>
        <trkpt lat="28.734965" lon="105.282756"><ele>452.83173</ele><time>2025-12-13T22:35:31.000Z</time></trkpt>
        <trkpt lat="28.735012" lon="105.282772"><ele>453.66467</ele><time>2025-12-13T22:35:37.000Z</time></trkpt>
        <trkpt lat="28.735065" lon="105.282754"><ele>454.2248</ele><time>2025-12-13T22:35:44.000Z</time></trkpt>
        <trkpt lat="28.73509" lon="105.282706"><ele>453.71832</ele><time>2025-12-13T22:35:50.000Z</time></trkpt>
        <trkpt lat="28.735042" lon="105.282669"><ele>453.4407</ele><time>2025-12-13T22:36:03.000Z</time></trkpt>
        <trkpt lat="28.73501" lon="105.282632"><ele>453.41678</ele><time>2025-12-13T22:36:16.000Z</time></trkpt>
        <trkpt lat="28.735055" lon="105.282656"><ele>453.2551</ele><time>2025-12-13T22:37:04.000Z</time></trkpt>
        <trkpt lat="28.735104" lon="105.282661"><ele>453.5459</ele><time>2025-12-13T22:37:09.000Z</time></trkpt>
        <trkpt lat="28.735135" lon="105.282623"><ele>454.04797</ele><time>2025-12-13T22:37:16.000Z</time></trkpt>
        <trkpt lat="28.735161" lon="105.282579"><ele>453.68567</ele><time>2025-12-13T22:37:24.000Z</time></trkpt>
        <trkpt lat="28.735196" lon="105.282533"><ele>453.2188</ele><time>2025-12-13T22:37:34.000Z</time></trkpt>
        <trkpt lat="28.73524" lon="105.282516"><ele>453.19662</ele><time>2025-12-13T22:37:39.000Z</time></trkpt>
        <trkpt lat="28.735286" lon="105.282516"><ele>453.1487</ele><time>2025-12-13T22:37:45.000Z</time></trkpt>
        <trkpt lat="28.735334" lon="105.282526"><ele>453.3698</ele><time>2025-12-13T22:37:50.000Z</time></trkpt>
        <trkpt lat="28.735387" lon="105.28254"><ele>453.3193</ele><time>2025-12-13T22:37:57.000Z</time></trkpt>
        <trkpt lat="28.735432" lon="105.28255"><ele>454.07367</ele><time>2025-12-13T22:38:04.000Z</time></trkpt>
        <trkpt lat="28.735477" lon="105.282554"><ele>453.8022</ele><time>2025-12-13T22:38:09.000Z</time></trkpt>
        <trkpt lat="28.735523" lon="105.282568"><ele>454.24246</ele><time>2025-12-13T22:38:16.000Z</time></trkpt>
        <trkpt lat="28.735572" lon="105.282574"><ele>454.20837</ele><time>2025-12-13T22:38:23.000Z</time></trkpt>
        <trkpt lat="28.735618" lon="105.282582"><ele>455.0925</ele><time>2025-12-13T22:38:29.000Z</time></trkpt>
        <trkpt lat="28.735665" lon="105.282567"><ele>455.83917</ele><time>2025-12-13T22:38:35.000Z</time></trkpt>
        <trkpt lat="28.735715" lon="105.282543"><ele>456.68225</ele><time>2025-12-13T22:38:41.000Z</time></trkpt>
        <trkpt lat="28.735758" lon="105.282511"><ele>457.6674</ele><time>2025-12-13T22:38:47.000Z</time></trkpt>
        <trkpt lat="28.735799" lon="105.282478"><ele>458.30054</ele><time>2025-12-13T22:38:53.000Z</time></trkpt>
        <trkpt lat="28.735826" lon="105.282429"><ele>459.38495</ele><time>2025-12-13T22:39:01.000Z</time></trkpt>
        <trkpt lat="28.73583" lon="105.282373"><ele>459.2499</ele><time>2025-12-13T22:39:07.000Z</time></trkpt>
        <trkpt lat="28.735826" lon="105.28232"><ele>459.97278</ele><time>2025-12-13T22:39:12.000Z</time></trkpt>
        <trkpt lat="28.735809" lon="105.28227"><ele>458.91925</ele><time>2025-12-13T22:39:18.000Z</time></trkpt>
        <trkpt lat="28.735797" lon="105.282219"><ele>457.91144</ele><time>2025-12-13T22:39:24.000Z</time></trkpt>
        <trkpt lat="28.735784" lon="105.282162"><ele>457.4547</ele><time>2025-12-13T22:39:31.000Z</time></trkpt>
        <trkpt lat="28.735773" lon="105.282104"><ele>456.36157</ele><time>2025-12-13T22:39:38.000Z</time></trkpt>
        <trkpt lat="28.735771" lon="105.282046"><ele>455.40863</ele><time>2025-12-13T22:39:46.000Z</time></trkpt>
        <trkpt lat="28.735768" lon="105.281989"><ele>454.80823</ele><time>2025-12-13T22:39:54.000Z</time></trkpt>
        <trkpt lat="28.73576" lon="105.281938"><ele>454.98178</ele><time>2025-12-13T22:40:01.000Z</time></trkpt>
        <trkpt lat="28.735762" lon="105.281881"><ele>454.29697</ele><time>2025-12-13T22:40:10.000Z</time></trkpt>
        <trkpt lat="28.735772" lon="105.281831"><ele>453.36676</ele><time>2025-12-13T22:40:16.000Z</time></trkpt>
        <trkpt lat="28.735791" lon="105.281782"><ele>452.99063</ele><time>2025-12-13T22:40:24.000Z</time></trkpt>
        <trkpt lat="28.7358" lon="105.281723"><ele>451.77048</ele><time>2025-12-13T22:40:33.000Z</time></trkpt>
        <trkpt lat="28.735826" lon="105.281681"><ele>451.25934</ele><time>2025-12-13T22:40:42.000Z</time></trkpt>
        <trkpt lat="28.735846" lon="105.281627"><ele>451.11926</ele><time>2025-12-13T22:40:47.000Z</time></trkpt>
        <trkpt lat="28.735831" lon="105.281574"><ele>450.14368</ele><time>2025-12-13T22:40:52.000Z</time></trkpt>
        <trkpt lat="28.735805" lon="105.281524"><ele>448.68945</ele><time>2025-12-13T22:40:59.000Z</time></trkpt>
        <trkpt lat="28.735782" lon="105.281477"><ele>447.99902</ele><time>2025-12-13T22:41:07.000Z</time></trkpt>
        <trkpt lat="28.735773" lon="105.281425"><ele>447.7085</ele><time>2025-12-13T22:41:16.000Z</time></trkpt>
        <trkpt lat="28.73576" lon="105.281376"><ele>447.41714</ele><time>2025-12-13T22:42:01.000Z</time></trkpt>
        <trkpt lat="28.73577" lon="105.281325"><ele>445.94116</ele><time>2025-12-13T22:42:22.000Z</time></trkpt>
        <trkpt lat="28.735777" lon="105.281267"><ele>444.73605</ele><time>2025-12-13T22:42:36.000Z</time></trkpt>
        <trkpt lat="28.735771" lon="105.281211"><ele>443.63205</ele><time>2025-12-13T22:42:43.000Z</time></trkpt>
        <trkpt lat="28.735758" lon="105.281156"><ele>444.301</ele><time>2025-12-13T22:42:59.000Z</time></trkpt>
        <trkpt lat="28.735734" lon="105.281112"><ele>442.9616</ele><time>2025-12-13T22:43:07.000Z</time></trkpt>
        <trkpt lat="28.735707" lon="105.281068"><ele>442.7455</ele><time>2025-12-13T22:43:14.000Z</time></trkpt>
        <trkpt lat="28.735694" lon="105.281018"><ele>442.6943</ele><time>2025-12-13T22:43:24.000Z</time></trkpt>
        <trkpt lat="28.735685" lon="105.280965"><ele>442.3482</ele><time>2025-12-13T22:43:29.000Z</time></trkpt>
        <trkpt lat="28.735679" lon="105.280908"><ele>441.1531</ele><time>2025-12-13T22:43:36.000Z</time></trkpt>
        <trkpt lat="28.735663" lon="105.280856"><ele>441.1658</ele><time>2025-12-13T22:43:44.000Z</time></trkpt>
        <trkpt lat="28.735673" lon="105.280802"><ele>439.97025</ele><time>2025-12-13T22:44:02.000Z</time></trkpt>
        <trkpt lat="28.7357" lon="105.280754"><ele>438.61115</ele><time>2025-12-13T22:44:08.000Z</time></trkpt>
        <trkpt lat="28.735732" lon="105.280713"><ele>437.05817</ele><time>2025-12-13T22:44:14.000Z</time></trkpt>
        <trkpt lat="28.735783" lon="105.280696"><ele>435.30542</ele><time>2025-12-13T22:44:20.000Z</time></trkpt>
        <trkpt lat="28.735828" lon="105.280679"><ele>433.86807</ele><time>2025-12-13T22:44:26.000Z</time></trkpt>
        <trkpt lat="28.735878" lon="105.280675"><ele>432.60724</ele><time>2025-12-13T22:44:30.000Z</time></trkpt>
        <trkpt lat="28.735928" lon="105.280665"><ele>430.80933</ele><time>2025-12-13T22:44:36.000Z</time></trkpt>
        <trkpt lat="28.735979" lon="105.280667"><ele>428.02728</ele><time>2025-12-13T22:44:41.000Z</time></trkpt>
        <trkpt lat="28.73603" lon="105.280679"><ele>426.4724</ele><time>2025-12-13T22:44:46.000Z</time></trkpt>
        <trkpt lat="28.736076" lon="105.280692"><ele>423.24576</ele><time>2025-12-13T22:44:52.000Z</time></trkpt>
        <trkpt lat="28.736121" lon="105.28069"><ele>423.6582</ele><time>2025-12-13T22:44:56.000Z</time></trkpt>
        <trkpt lat="28.736166" lon="105.280666"><ele>425.22565</ele><time>2025-12-13T22:45:02.000Z</time></trkpt>
        <trkpt lat="28.736188" lon="105.280609"><ele>422.6388</ele><time>2025-12-13T22:45:10.000Z</time></trkpt>
        <trkpt lat="28.736214" lon="105.280567"><ele>423.0875</ele><time>2025-12-13T22:45:14.000Z</time></trkpt>
        <trkpt lat="28.73624" lon="105.280522"><ele>425.78406</ele><time>2025-12-13T22:45:20.000Z</time></trkpt>
        <trkpt lat="28.736218" lon="105.280476"><ele>443.47357</ele><time>2025-12-13T22:46:18.000Z</time></trkpt>
        <trkpt lat="28.736185" lon="105.280433"><ele>443.74652</ele><time>2025-12-13T22:46:25.000Z</time></trkpt>
        <trkpt lat="28.736189" lon="105.280382"><ele>423.3068</ele><time>2025-12-13T22:46:29.000Z</time></trkpt>
        <trkpt lat="28.736165" lon="105.280331"><ele>413.3068</ele><time>2025-12-13T22:46:35.000Z</time></trkpt>
        <trkpt lat="28.73615" lon="105.280275"><ele>409.65985</ele><time>2025-12-13T22:46:41.000Z</time></trkpt>
        <trkpt lat="28.736126" lon="105.280232"><ele>408.25702</ele><time>2025-12-13T22:46:48.000Z</time></trkpt>
        <trkpt lat="28.736106" lon="105.280178"><ele>408.05328</ele><time>2025-12-13T22:46:53.000Z</time></trkpt>
        <trkpt lat="28.736074" lon="105.280131"><ele>406.93585</ele><time>2025-12-13T22:46:58.000Z</time></trkpt>
        <trkpt lat="28.73604" lon="105.280093"><ele>406.6095</ele><time>2025-12-13T22:47:11.000Z</time></trkpt>
        <trkpt lat="28.736015" lon="105.280042"><ele>406.17935</ele><time>2025-12-13T22:47:16.000Z</time></trkpt>
        <trkpt lat="28.735992" lon="105.279998"><ele>406.15143</ele><time>2025-12-13T22:47:21.000Z</time></trkpt>
        <trkpt lat="28.73597" lon="105.279947"><ele>405.8301</ele><time>2025-12-13T22:47:26.000Z</time></trkpt>
        <trkpt lat="28.735931" lon="105.279918"><ele>406.3559</ele><time>2025-12-13T22:47:30.000Z</time></trkpt>
        <trkpt lat="28.73588" lon="105.279885"><ele>407.24142</ele><time>2025-12-13T22:47:35.000Z</time></trkpt>
        <trkpt lat="28.735852" lon="105.279844"><ele>407.91055</ele><time>2025-12-13T22:47:40.000Z</time></trkpt>
        <trkpt lat="28.735831" lon="105.279797"><ele>409.38162</ele><time>2025-12-13T22:47:45.000Z</time></trkpt>
        <trkpt lat="28.735808" lon="105.27974"><ele>409.09872</ele><time>2025-12-13T22:47:50.000Z</time></trkpt>
        <trkpt lat="28.735784" lon="105.279695"><ele>410.07687</ele><time>2025-12-13T22:47:54.000Z</time></trkpt>
        <trkpt lat="28.735763" lon="105.279644"><ele>410.08652</ele><time>2025-12-13T22:47:59.000Z</time></trkpt>
        <trkpt lat="28.735782" lon="105.279596"><ele>409.6278</ele><time>2025-12-13T22:48:16.000Z</time></trkpt>
        <trkpt lat="28.735758" lon="105.279549"><ele>409.3876</ele><time>2025-12-13T22:48:24.000Z</time></trkpt>
        <trkpt lat="28.735733" lon="105.279504"><ele>407.6095</ele><time>2025-12-13T22:48:30.000Z</time></trkpt>
        <trkpt lat="28.735706" lon="105.279462"><ele>414.1609</ele><time>2025-12-13T22:48:45.000Z</time></trkpt>
        <trkpt lat="28.735659" lon="105.279459"><ele>417.02643</ele><time>2025-12-13T22:48:49.000Z</time></trkpt>
        <trkpt lat="28.73561" lon="105.279428"><ele>419.07944</ele><time>2025-12-13T22:48:55.000Z</time></trkpt>
        <trkpt lat="28.735562" lon="105.279406"><ele>419.94867</ele><time>2025-12-13T22:49:01.000Z</time></trkpt>
        <trkpt lat="28.735526" lon="105.279366"><ele>420.57794</ele><time>2025-12-13T22:49:07.000Z</time></trkpt>
        <trkpt lat="28.735501" lon="105.279319"><ele>418.03442</ele><time>2025-12-13T22:49:12.000Z</time></trkpt>
        <trkpt lat="28.735473" lon="105.279261"><ele>415.27133</ele><time>2025-12-13T22:49:18.000Z</time></trkpt>
        <trkpt lat="28.735438" lon="105.279214"><ele>413.86322</ele><time>2025-12-13T22:49:23.000Z</time></trkpt>
        <trkpt lat="28.735401" lon="105.279172"><ele>413.64667</ele><time>2025-12-13T22:49:27.000Z</time></trkpt>
        <trkpt lat="28.735376" lon="105.279128"><ele>414.2597</ele><time>2025-12-13T22:49:32.000Z</time></trkpt>
        <trkpt lat="28.735395" lon="105.279076"><ele>414.44208</ele><time>2025-12-13T22:49:37.000Z</time></trkpt>
        <trkpt lat="28.73539" lon="105.279022"><ele>414.8358</ele><time>2025-12-13T22:49:45.000Z</time></trkpt>
        <trkpt lat="28.735371" lon="105.278969"><ele>410.79886</ele><time>2025-12-13T22:49:51.000Z</time></trkpt>
        <trkpt lat="28.735347" lon="105.278923"><ele>408.9301</ele><time>2025-12-13T22:49:56.000Z</time></trkpt>
        <trkpt lat="28.735321" lon="105.278872"><ele>409.0481</ele><time>2025-12-13T22:50:02.000Z</time></trkpt>
        <trkpt lat="28.735292" lon="105.278826"><ele>409.88187</ele><time>2025-12-13T22:50:07.000Z</time></trkpt>
        <trkpt lat="28.735268" lon="105.278781"><ele>409.206</ele><time>2025-12-13T22:50:13.000Z</time></trkpt>
        <trkpt lat="28.73523" lon="105.278727"><ele>409.9238</ele><time>2025-12-13T22:50:18.000Z</time></trkpt>
        <trkpt lat="28.735214" lon="105.278679"><ele>408.7398</ele><time>2025-12-13T22:50:23.000Z</time></trkpt>
        <trkpt lat="28.735194" lon="105.278628"><ele>408.34872</ele><time>2025-12-13T22:50:30.000Z</time></trkpt>
        <trkpt lat="28.735174" lon="105.27858"><ele>407.47104</ele><time>2025-12-13T22:50:36.000Z</time></trkpt>
        <trkpt lat="28.735146" lon="105.278538"><ele>406.9028</ele><time>2025-12-13T22:50:42.000Z</time></trkpt>
        <trkpt lat="28.735107" lon="105.278497"><ele>406.936</ele><time>2025-12-13T22:50:48.000Z</time></trkpt>
        <trkpt lat="28.735084" lon="105.278441"><ele>406.23584</ele><time>2025-12-13T22:50:54.000Z</time></trkpt>
        <trkpt lat="28.73504" lon="105.278414"><ele>428.1999</ele><time>2025-12-13T22:51:34.000Z</time></trkpt>
        <trkpt lat="28.735007" lon="105.27838"><ele>412.97342</ele><time>2025-12-13T22:51:57.000Z</time></trkpt>
        <trkpt lat="28.734976" lon="105.278333"><ele>410.46094</ele><time>2025-12-13T22:52:08.000Z</time></trkpt>
        <trkpt lat="28.734931" lon="105.278304"><ele>410.47073</ele><time>2025-12-13T22:52:14.000Z</time></trkpt>
        <trkpt lat="28.734893" lon="105.278277"><ele>409.5689</ele><time>2025-12-13T22:52:22.000Z</time></trkpt>
        <trkpt lat="28.734845" lon="105.278263"><ele>415.41544</ele><time>2025-12-13T22:52:44.000Z</time></trkpt>
        <trkpt lat="28.734792" lon="105.27824"><ele>411.20694</ele><time>2025-12-13T22:52:50.000Z</time></trkpt>
        <trkpt lat="28.734763" lon="105.278197"><ele>411.01984</ele><time>2025-12-13T22:52:58.000Z</time></trkpt>
        <trkpt lat="28.734718" lon="105.278177"><ele>411.30453</ele><time>2025-12-13T22:53:05.000Z</time></trkpt>
        <trkpt lat="28.734689" lon="105.278133"><ele>411.93524</ele><time>2025-12-13T22:53:16.000Z</time></trkpt>
        <trkpt lat="28.734665" lon="105.278085"><ele>410.68192</ele><time>2025-12-13T22:53:27.000Z</time></trkpt>
        <trkpt lat="28.734673" lon="105.278026"><ele>409.9705</ele><time>2025-12-13T22:53:34.000Z</time></trkpt>
        <trkpt lat="28.73469" lon="105.277975"><ele>411.92276</ele><time>2025-12-13T22:53:41.000Z</time></trkpt>
        <trkpt lat="28.734733" lon="105.27795"><ele>425.1549</ele><time>2025-12-13T22:54:01.000Z</time></trkpt>
        <trkpt lat="28.734705" lon="105.277993"><ele>439.21475</ele><time>2025-12-13T22:54:38.000Z</time></trkpt>
        <trkpt lat="28.734751" lon="105.278008"><ele>438.75482</ele><time>2025-12-13T22:56:44.000Z</time></trkpt>
        <trkpt lat="28.734704" lon="105.278007"><ele>405.11304</ele><time>2025-12-13T22:57:49.000Z</time></trkpt>
        <trkpt lat="28.734662" lon="105.27798"><ele>406.85577</ele><time>2025-12-13T22:57:54.000Z</time></trkpt>
        <trkpt lat="28.734616" lon="105.277967"><ele>410.16724</ele><time>2025-12-13T22:59:14.000Z</time></trkpt>
        <trkpt lat="28.734575" lon="105.277928"><ele>409.41342</ele><time>2025-12-13T22:59:22.000Z</time></trkpt>
        <trkpt lat="28.73456" lon="105.277872"><ele>407.2963</ele><time>2025-12-13T22:59:29.000Z</time></trkpt>
        <trkpt lat="28.734541" lon="105.277826"><ele>404.9614</ele><time>2025-12-13T22:59:38.000Z</time></trkpt>
        <trkpt lat="28.734523" lon="105.277778"><ele>403.4349</ele><time>2025-12-13T23:00:06.000Z</time></trkpt>
        <trkpt lat="28.734489" lon="105.277736"><ele>402.67902</ele><time>2025-12-13T23:00:13.000Z</time></trkpt>
        <trkpt lat="28.734446" lon="105.277708"><ele>402.52188</ele><time>2025-12-13T23:00:19.000Z</time></trkpt>
        <trkpt lat="28.734395" lon="105.277692"><ele>402.1274</ele><time>2025-12-13T23:00:25.000Z</time></trkpt>
        <trkpt lat="28.734348" lon="105.277685"><ele>402.81107</ele><time>2025-12-13T23:00:29.000Z</time></trkpt>
        <trkpt lat="28.734301" lon="105.27767"><ele>404.30386</ele><time>2025-12-13T23:00:34.000Z</time></trkpt>
        <trkpt lat="28.734255" lon="105.277673"><ele>407.076</ele><time>2025-12-13T23:00:41.000Z</time></trkpt>
        <trkpt lat="28.734209" lon="105.27765"><ele>408.65082</ele><time>2025-12-13T23:00:46.000Z</time></trkpt>
        <trkpt lat="28.734169" lon="105.27762"><ele>409.56543</ele><time>2025-12-13T23:00:53.000Z</time></trkpt>
        <trkpt lat="28.734131" lon="105.277591"><ele>409.14548</ele><time>2025-12-13T23:00:59.000Z</time></trkpt>
        <trkpt lat="28.734083" lon="105.277592"><ele>410.5034</ele><time>2025-12-13T23:01:06.000Z</time></trkpt>
        <trkpt lat="28.734037" lon="105.277566"><ele>410.4207</ele><time>2025-12-13T23:01:11.000Z</time></trkpt>
        <trkpt lat="28.733994" lon="105.27755"><ele>410.78815</ele><time>2025-12-13T23:01:18.000Z</time></trkpt>
        <trkpt lat="28.733952" lon="105.277524"><ele>412.05475</ele><time>2025-12-13T23:01:24.000Z</time></trkpt>
        <trkpt lat="28.733908" lon="105.277507"><ele>412.9916</ele><time>2025-12-13T23:01:46.000Z</time></trkpt>
        <trkpt lat="28.733881" lon="105.277465"><ele>414.89987</ele><time>2025-12-13T23:02:20.000Z</time></trkpt>
        <trkpt lat="28.733913" lon="105.277429"><ele>414.30392</ele><time>2025-12-13T23:02:25.000Z</time></trkpt>
        <trkpt lat="28.733938" lon="105.277379"><ele>414.6395</ele><time>2025-12-13T23:02:32.000Z</time></trkpt>
        <trkpt lat="28.733907" lon="105.277339"><ele>408.24393</ele><time>2025-12-13T23:02:40.000Z</time></trkpt>
        <trkpt lat="28.73388" lon="105.277292"><ele>404.75064</ele><time>2025-12-13T23:03:12.000Z</time></trkpt>
        <trkpt lat="28.733844" lon="105.277257"><ele>405.74344</ele><time>2025-12-13T23:03:28.000Z</time></trkpt>
        <trkpt lat="28.733811" lon="105.277219"><ele>404.57962</ele><time>2025-12-13T23:03:37.000Z</time></trkpt>
        <trkpt lat="28.733775" lon="105.277181"><ele>405.4471</ele><time>2025-12-13T23:03:48.000Z</time></trkpt>
        <trkpt lat="28.73373" lon="105.277147"><ele>404.82996</ele><time>2025-12-13T23:04:00.000Z</time></trkpt>
        <trkpt lat="28.733779" lon="105.277177"><ele>407.69104</ele><time>2025-12-13T23:04:18.000Z</time></trkpt>
        <trkpt lat="28.733795" lon="105.277229"><ele>406.59616</ele><time>2025-12-13T23:04:30.000Z</time></trkpt>
        <trkpt lat="28.733766" lon="105.277281"><ele>408.34595</ele><time>2025-12-13T23:04:37.000Z</time></trkpt>
        <trkpt lat="28.733739" lon="105.277326"><ele>411.0324</ele><time>2025-12-13T23:04:44.000Z</time></trkpt>
        <trkpt lat="28.7337" lon="105.277369"><ele>413.12714</ele><time>2025-12-13T23:04:50.000Z</time></trkpt>
        <trkpt lat="28.733683" lon="105.277419"><ele>414.63678</ele><time>2025-12-13T23:04:56.000Z</time></trkpt>
        <trkpt lat="28.733658" lon="105.277465"><ele>416.51233</ele><time>2025-12-13T23:05:02.000Z</time></trkpt>
        <trkpt lat="28.733631" lon="105.277511"><ele>418.37955</ele><time>2025-12-13T23:05:08.000Z</time></trkpt>
        <trkpt lat="28.733617" lon="105.27756"><ele>420.57944</ele><time>2025-12-13T23:05:19.000Z</time></trkpt>
        <trkpt lat="28.733605" lon="105.277611"><ele>420.30615</ele><time>2025-12-13T23:05:37.000Z</time></trkpt>
        <trkpt lat="28.733622" lon="105.27766"><ele>421.52795</ele><time>2025-12-13T23:05:47.000Z</time></trkpt>
        <trkpt lat="28.73362" lon="105.277713"><ele>422.56122</ele><time>2025-12-13T23:05:58.000Z</time></trkpt>
        <trkpt lat="28.733628" lon="105.277765"><ele>423.13992</ele><time>2025-12-13T23:06:04.000Z</time></trkpt>
        <trkpt lat="28.733629" lon="105.27782"><ele>424.3817</ele><time>2025-12-13T23:06:13.000Z</time></trkpt>
        <trkpt lat="28.733583" lon="105.277832"><ele>425.39105</ele><time>2025-12-13T23:06:28.000Z</time></trkpt>
        <trkpt lat="28.73354" lon="105.277804"><ele>424.0085</ele><time>2025-12-13T23:06:39.000Z</time></trkpt>
        <trkpt lat="28.733484" lon="105.2778"><ele>422.9085</ele><time>2025-12-13T23:06:51.000Z</time></trkpt>
        <trkpt lat="28.733441" lon="105.277774"><ele>421.33514</ele><time>2025-12-13T23:06:59.000Z</time></trkpt>
        <trkpt lat="28.733398" lon="105.277742"><ele>420.32675</ele><time>2025-12-13T23:07:12.000Z</time></trkpt>
        <trkpt lat="28.733384" lon="105.277688"><ele>419.95496</ele><time>2025-12-13T23:07:25.000Z</time></trkpt>
        <trkpt lat="28.733411" lon="105.277647"><ele>420.40164</ele><time>2025-12-13T23:07:44.000Z</time></trkpt>
        <trkpt lat="28.733428" lon="105.277595"><ele>421.87125</ele><time>2025-12-13T23:08:42.000Z</time></trkpt>
        <trkpt lat="28.733428" lon="105.277543"><ele>422.37698</ele><time>2025-12-13T23:08:49.000Z</time></trkpt>
        <trkpt lat="28.733415" lon="105.277492"><ele>422.59286</ele><time>2025-12-13T23:08:56.000Z</time></trkpt>
        <trkpt lat="28.733383" lon="105.277451"><ele>423.20544</ele><time>2025-12-13T23:09:09.000Z</time></trkpt>
        <trkpt lat="28.733362" lon="105.277398"><ele>424.1143</ele><time>2025-12-13T23:09:16.000Z</time></trkpt>
        <trkpt lat="28.733347" lon="105.277349"><ele>423.08698</ele><time>2025-12-13T23:09:24.000Z</time></trkpt>
        <trkpt lat="28.733387" lon="105.277323"><ele>422.62842</ele><time>2025-12-13T23:09:50.000Z</time></trkpt>
        <trkpt lat="28.733391" lon="105.277272"><ele>422.56888</ele><time>2025-12-13T23:09:59.000Z</time></trkpt>
        <trkpt lat="28.733381" lon="105.277337"><ele>422.704</ele><time>2025-12-13T23:10:22.000Z</time></trkpt>
        <trkpt lat="28.733342" lon="105.27737"><ele>422.58914</ele><time>2025-12-13T23:10:28.000Z</time></trkpt>
        <trkpt lat="28.733297" lon="105.27736"><ele>425.84897</ele><time>2025-12-13T23:10:42.000Z</time></trkpt>
        <trkpt lat="28.733254" lon="105.27739"><ele>425.59454</ele><time>2025-12-13T23:10:52.000Z</time></trkpt>
        <trkpt lat="28.733233" lon="105.277337"><ele>425.2482</ele><time>2025-12-13T23:11:02.000Z</time></trkpt>
        <trkpt lat="28.733234" lon="105.277274"><ele>424.80872</ele><time>2025-12-13T23:11:11.000Z</time></trkpt>
        <trkpt lat="28.73327" lon="105.277243"><ele>424.97095</ele><time>2025-12-13T23:11:18.000Z</time></trkpt>
        <trkpt lat="28.7333" lon="105.277202"><ele>425.20645</ele><time>2025-12-13T23:11:24.000Z</time></trkpt>
        <trkpt lat="28.73333" lon="105.277159"><ele>425.20477</ele><time>2025-12-13T23:11:29.000Z</time></trkpt>
        <trkpt lat="28.733346" lon="105.277104"><ele>424.57654</ele><time>2025-12-13T23:11:35.000Z</time></trkpt>
        <trkpt lat="28.733362" lon="105.277055"><ele>424.11084</ele><time>2025-12-13T23:11:41.000Z</time></trkpt>
        <trkpt lat="28.733375" lon="105.277003"><ele>423.3654</ele><time>2025-12-13T23:11:47.000Z</time></trkpt>
        <trkpt lat="28.733398" lon="105.276951"><ele>421.8352</ele><time>2025-12-13T23:11:54.000Z</time></trkpt>
        <trkpt lat="28.733434" lon="105.276908"><ele>420.6496</ele><time>2025-12-13T23:12:00.000Z</time></trkpt>
        <trkpt lat="28.733476" lon="105.276878"><ele>422.49084</ele><time>2025-12-13T23:12:08.000Z</time></trkpt>
        <trkpt lat="28.733513" lon="105.276839"><ele>424.79492</ele><time>2025-12-13T23:12:16.000Z</time></trkpt>
        <trkpt lat="28.733557" lon="105.276822"><ele>425.61343</ele><time>2025-12-13T23:12:28.000Z</time></trkpt>
        <trkpt lat="28.733514" lon="105.276805"><ele>431.62537</ele><time>2025-12-13T23:12:53.000Z</time></trkpt>
        <trkpt lat="28.73347" lon="105.276781"><ele>434.03897</ele><time>2025-12-13T23:13:03.000Z</time></trkpt>
        <trkpt lat="28.73342" lon="105.27676"><ele>436.5334</ele><time>2025-12-13T23:13:10.000Z</time></trkpt>
        <trkpt lat="28.733454" lon="105.27672"><ele>436.6986</ele><time>2025-12-13T23:13:28.000Z</time></trkpt>
        <trkpt lat="28.733472" lon="105.276662"><ele>424.409</ele><time>2025-12-13T23:13:35.000Z</time></trkpt>
        <trkpt lat="28.733502" lon="105.276611"><ele>418.58536</ele><time>2025-12-13T23:13:43.000Z</time></trkpt>
        <trkpt lat="28.733514" lon="105.27656"><ele>413.37534</ele><time>2025-12-13T23:13:50.000Z</time></trkpt>
        <trkpt lat="28.733529" lon="105.276508"><ele>410.5191</ele><time>2025-12-13T23:13:57.000Z</time></trkpt>
        <trkpt lat="28.733536" lon="105.276456"><ele>409.0179</ele><time>2025-12-13T23:14:06.000Z</time></trkpt>
        <trkpt lat="28.733506" lon="105.276417"><ele>408.2366</ele><time>2025-12-13T23:14:15.000Z</time></trkpt>
        <trkpt lat="28.733461" lon="105.276395"><ele>410.28314</ele><time>2025-12-13T23:14:25.000Z</time></trkpt>
        <trkpt lat="28.733437" lon="105.276348"><ele>411.59286</ele><time>2025-12-13T23:14:33.000Z</time></trkpt>
        <trkpt lat="28.733404" lon="105.276309"><ele>416.77216</ele><time>2025-12-13T23:14:53.000Z</time></trkpt>
        <trkpt lat="28.733361" lon="105.276328"><ele>427.9836</ele><time>2025-12-13T23:15:06.000Z</time></trkpt>
        <trkpt lat="28.733408" lon="105.276328"><ele>440.99066</ele><time>2025-12-13T23:15:41.000Z</time></trkpt>
        <trkpt lat="28.733449" lon="105.276295"><ele>446.29492</ele><time>2025-12-13T23:16:29.000Z</time></trkpt>
        <trkpt lat="28.73344" lon="105.276243"><ele>447.56775</ele><time>2025-12-13T23:16:35.000Z</time></trkpt>
        <trkpt lat="28.733431" lon="105.276182"><ele>429.19168</ele><time>2025-12-13T23:16:39.000Z</time></trkpt>
        <trkpt lat="28.733408" lon="105.276128"><ele>418.3899</ele><time>2025-12-13T23:16:44.000Z</time></trkpt>
        <trkpt lat="28.733387" lon="105.276081"><ele>413.7239</ele><time>2025-12-13T23:16:50.000Z</time></trkpt>
        <trkpt lat="28.733347" lon="105.276051"><ele>410.1341</ele><time>2025-12-13T23:17:14.000Z</time></trkpt>
        <trkpt lat="28.733317" lon="105.276004"><ele>408.95374</ele><time>2025-12-13T23:17:19.000Z</time></trkpt>
        <trkpt lat="28.73329" lon="105.275951"><ele>408.159</ele><time>2025-12-13T23:17:24.000Z</time></trkpt>
        <trkpt lat="28.73328" lon="105.275896"><ele>406.09512</ele><time>2025-12-13T23:17:29.000Z</time></trkpt>
        <trkpt lat="28.733251" lon="105.275842"><ele>405.1447</ele><time>2025-12-13T23:17:34.000Z</time></trkpt>
        <trkpt lat="28.733229" lon="105.275796"><ele>404.52158</ele><time>2025-12-13T23:17:39.000Z</time></trkpt>
        <trkpt lat="28.7332" lon="105.275751"><ele>404.14368</ele><time>2025-12-13T23:17:43.000Z</time></trkpt>
        <trkpt lat="28.733176" lon="105.275696"><ele>403.38742</ele><time>2025-12-13T23:17:49.000Z</time></trkpt>
        <trkpt lat="28.733145" lon="105.275652"><ele>402.91187</ele><time>2025-12-13T23:17:53.000Z</time></trkpt>
        <trkpt lat="28.733133" lon="105.275602"><ele>402.7043</ele><time>2025-12-13T23:17:59.000Z</time></trkpt>
        <trkpt lat="28.733102" lon="105.275554"><ele>402.1343</ele><time>2025-12-13T23:18:03.000Z</time></trkpt>
        <trkpt lat="28.733078" lon="105.275508"><ele>401.497</ele><time>2025-12-13T23:18:07.000Z</time></trkpt>
        <trkpt lat="28.73306" lon="105.275457"><ele>399.9097</ele><time>2025-12-13T23:18:12.000Z</time></trkpt>
        <trkpt lat="28.733035" lon="105.275411"><ele>398.90018</ele><time>2025-12-13T23:18:17.000Z</time></trkpt>
        <trkpt lat="28.733012" lon="105.275356"><ele>397.9546</ele><time>2025-12-13T23:18:23.000Z</time></trkpt>
        <trkpt lat="28.732999" lon="105.275299"><ele>396.55087</ele><time>2025-12-13T23:18:31.000Z</time></trkpt>
        <trkpt lat="28.732968" lon="105.27525"><ele>393.78543</ele><time>2025-12-13T23:18:42.000Z</time></trkpt>
        <trkpt lat="28.732945" lon="105.2752"><ele>392.0683</ele><time>2025-12-13T23:18:49.000Z</time></trkpt>
        <trkpt lat="28.732906" lon="105.275159"><ele>392.57312</ele><time>2025-12-13T23:18:57.000Z</time></trkpt>
        <trkpt lat="28.732878" lon="105.275113"><ele>393.54843</ele><time>2025-12-13T23:19:09.000Z</time></trkpt>
        <trkpt lat="28.73284" lon="105.275072"><ele>393.34338</ele><time>2025-12-13T23:19:13.000Z</time></trkpt>
        <trkpt lat="28.732807" lon="105.275013"><ele>393.61374</ele><time>2025-12-13T23:19:18.000Z</time></trkpt>
        <trkpt lat="28.732754" lon="105.275029"><ele>395.8742</ele><time>2025-12-13T23:19:27.000Z</time></trkpt>
        <trkpt lat="28.732706" lon="105.275027"><ele>398.0641</ele><time>2025-12-13T23:19:38.000Z</time></trkpt>
        <trkpt lat="28.732659" lon="105.275021"><ele>400.2978</ele><time>2025-12-13T23:19:49.000Z</time></trkpt>
        <trkpt lat="28.732614" lon="105.274981"><ele>402.22006</ele><time>2025-12-13T23:19:57.000Z</time></trkpt>
        <trkpt lat="28.732572" lon="105.274964"><ele>403.68365</ele><time>2025-12-13T23:20:05.000Z</time></trkpt>
        <trkpt lat="28.732528" lon="105.274951"><ele>406.42178</ele><time>2025-12-13T23:20:14.000Z</time></trkpt>
        <trkpt lat="28.732482" lon="105.274929"><ele>408.55682</ele><time>2025-12-13T23:20:26.000Z</time></trkpt>
        <trkpt lat="28.732496" lon="105.274873"><ele>408.2253</ele><time>2025-12-13T23:20:53.000Z</time></trkpt>
        <trkpt lat="28.732512" lon="105.274819"><ele>408.9266</ele><time>2025-12-13T23:21:05.000Z</time></trkpt>
        <trkpt lat="28.732521" lon="105.274768"><ele>406.21753</ele><time>2025-12-13T23:21:14.000Z</time></trkpt>
        <trkpt lat="28.732509" lon="105.274719"><ele>404.7182</ele><time>2025-12-13T23:21:29.000Z</time></trkpt>
        <trkpt lat="28.732464" lon="105.274704"><ele>408.2569</ele><time>2025-12-13T23:24:31.000Z</time></trkpt>
        <trkpt lat="28.732513" lon="105.274702"><ele>412.7427</ele><time>2025-12-13T23:25:15.000Z</time></trkpt>
        <trkpt lat="28.732494" lon="105.274652"><ele>414.8713</ele><time>2025-12-13T23:30:09.000Z</time></trkpt>
        <trkpt lat="28.732452" lon="105.274635"><ele>405.38687</ele><time>2025-12-13T23:30:45.000Z</time></trkpt>
        <trkpt lat="28.732406" lon="105.274627"><ele>405.90363</ele><time>2025-12-13T23:31:13.000Z</time></trkpt>
        <trkpt lat="28.732363" lon="105.2746"><ele>409.34222</ele><time>2025-12-13T23:31:33.000Z</time></trkpt>
        <trkpt lat="28.732323" lon="105.274577"><ele>410.8114</ele><time>2025-12-13T23:31:41.000Z</time></trkpt>
        <trkpt lat="28.732289" lon="105.274531"><ele>413.20285</ele><time>2025-12-13T23:31:50.000Z</time></trkpt>
        <trkpt lat="28.73227" lon="105.274481"><ele>414.15955</ele><time>2025-12-13T23:32:00.000Z</time></trkpt>
        <trkpt lat="28.732279" lon="105.27443"><ele>415.08768</ele><time>2025-12-13T23:32:10.000Z</time></trkpt>
        <trkpt lat="28.732312" lon="105.274393"><ele>416.85468</ele><time>2025-12-13T23:32:16.000Z</time></trkpt>
        <trkpt lat="28.732354" lon="105.274421"><ele>423.4791</ele><time>2025-12-13T23:32:32.000Z</time></trkpt>
        <trkpt lat="28.732343" lon="105.274471"><ele>442.7479</ele><time>2025-12-13T23:33:20.000Z</time></trkpt>
        <trkpt lat="28.732359" lon="105.274421"><ele>447.41858</ele><time>2025-12-13T23:35:37.000Z</time></trkpt>
        <trkpt lat="28.732356" lon="105.274367"><ele>441.53406</ele><time>2025-12-13T23:36:18.000Z</time></trkpt>
        <trkpt lat="28.732309" lon="105.274339"><ele>424.90662</ele><time>2025-12-13T23:36:26.000Z</time></trkpt>
        <trkpt lat="28.732273" lon="105.274308"><ele>417.05746</ele><time>2025-12-13T23:36:33.000Z</time></trkpt>
        <trkpt lat="28.732233" lon="105.274277"><ele>412.59174</ele><time>2025-12-13T23:36:42.000Z</time></trkpt>
        <trkpt lat="28.732205" lon="105.274232"><ele>412.757</ele><time>2025-12-13T23:36:52.000Z</time></trkpt>
        <trkpt lat="28.732202" lon="105.274169"><ele>411.6314</ele><time>2025-12-13T23:37:03.000Z</time></trkpt>
        <trkpt lat="28.732167" lon="105.274135"><ele>414.08023</ele><time>2025-12-13T23:37:13.000Z</time></trkpt>
        <trkpt lat="28.732115" lon="105.27413"><ele>418.21082</ele><time>2025-12-13T23:37:19.000Z</time></trkpt>
        <trkpt lat="28.732065" lon="105.27412"><ele>421.4576</ele><time>2025-12-13T23:37:25.000Z</time></trkpt>
        <trkpt lat="28.732013" lon="105.274111"><ele>424.82828</ele><time>2025-12-13T23:37:32.000Z</time></trkpt>
        <trkpt lat="28.731956" lon="105.274113"><ele>427.43604</ele><time>2025-12-13T23:37:38.000Z</time></trkpt>
        <trkpt lat="28.731907" lon="105.274131"><ele>427.3137</ele><time>2025-12-13T23:38:03.000Z</time></trkpt>
        <trkpt lat="28.73186" lon="105.274133"><ele>428.82974</ele><time>2025-12-13T23:38:09.000Z</time></trkpt>
        <trkpt lat="28.731808" lon="105.274119"><ele>430.66782</ele><time>2025-12-13T23:38:17.000Z</time></trkpt>
        <trkpt lat="28.73176" lon="105.274117"><ele>431.23642</ele><time>2025-12-13T23:38:20.000Z</time></trkpt>
        <trkpt lat="28.731736" lon="105.274161"><ele>434.52878</ele><time>2025-12-13T23:38:27.000Z</time></trkpt>
        <trkpt lat="28.73169" lon="105.274172"><ele>436.4</ele><time>2025-12-13T23:38:32.000Z</time></trkpt>
        <trkpt lat="28.731643" lon="105.274188"><ele>438.45996</ele><time>2025-12-13T23:38:38.000Z</time></trkpt>
        <trkpt lat="28.731601" lon="105.274207"><ele>438.67786</ele><time>2025-12-13T23:38:43.000Z</time></trkpt>
        <trkpt lat="28.731559" lon="105.274229"><ele>439.33493</ele><time>2025-12-13T23:38:50.000Z</time></trkpt>
        <trkpt lat="28.731533" lon="105.274276"><ele>439.3288</ele><time>2025-12-13T23:38:55.000Z</time></trkpt>
        <trkpt lat="28.731485" lon="105.274294"><ele>440.62677</ele><time>2025-12-13T23:39:01.000Z</time></trkpt>
        <trkpt lat="28.731439" lon="105.274289"><ele>440.75797</ele><time>2025-12-13T23:39:06.000Z</time></trkpt>
        <trkpt lat="28.731384" lon="105.274288"><ele>441.37894</ele><time>2025-12-13T23:39:11.000Z</time></trkpt>
        <trkpt lat="28.73133" lon="105.274283"><ele>441.78745</ele><time>2025-12-13T23:39:16.000Z</time></trkpt>
        <trkpt lat="28.731286" lon="105.274291"><ele>442.21765</ele><time>2025-12-13T23:39:20.000Z</time></trkpt>
        <trkpt lat="28.731238" lon="105.274297"><ele>440.60257</ele><time>2025-12-13T23:39:25.000Z</time></trkpt>
        <trkpt lat="28.731191" lon="105.2743"><ele>440.41275</ele><time>2025-12-13T23:39:30.000Z</time></trkpt>
        <trkpt lat="28.731133" lon="105.274293"><ele>440.24448</ele><time>2025-12-13T23:39:36.000Z</time></trkpt>
        <trkpt lat="28.731084" lon="105.274299"><ele>440.0516</ele><time>2025-12-13T23:39:41.000Z</time></trkpt>
        <trkpt lat="28.73103" lon="105.274298"><ele>439.82312</ele><time>2025-12-13T23:39:46.000Z</time></trkpt>
        <trkpt lat="28.730978" lon="105.274285"><ele>438.5406</ele><time>2025-12-13T23:39:51.000Z</time></trkpt>
        <trkpt lat="28.730943" lon="105.274247"><ele>438.69305</ele><time>2025-12-13T23:39:57.000Z</time></trkpt>
        <trkpt lat="28.730954" lon="105.274193"><ele>438.18137</ele><time>2025-12-13T23:40:02.000Z</time></trkpt>
        <trkpt lat="28.730967" lon="105.27414"><ele>437.60934</ele><time>2025-12-13T23:40:07.000Z</time></trkpt>
        <trkpt lat="28.730991" lon="105.274097"><ele>438.13666</ele><time>2025-12-13T23:40:12.000Z</time></trkpt>
        <trkpt lat="28.731015" lon="105.274048"><ele>438.18152</ele><time>2025-12-13T23:40:17.000Z</time></trkpt>
        <trkpt lat="28.731051" lon="105.274008"><ele>437.8118</ele><time>2025-12-13T23:40:29.000Z</time></trkpt>
        <trkpt lat="28.731075" lon="105.27396"><ele>437.21753</ele><time>2025-12-13T23:40:35.000Z</time></trkpt>
        <trkpt lat="28.731098" lon="105.273915"><ele>436.9577</ele><time>2025-12-13T23:40:40.000Z</time></trkpt>
        <trkpt lat="28.731122" lon="105.273867"><ele>437.3093</ele><time>2025-12-13T23:40:45.000Z</time></trkpt>
        <trkpt lat="28.73115" lon="105.273816"><ele>437.94925</ele><time>2025-12-13T23:40:56.000Z</time></trkpt>
        <trkpt lat="28.731141" lon="105.273764"><ele>436.60443</ele><time>2025-12-13T23:41:00.000Z</time></trkpt>
        <trkpt lat="28.731122" lon="105.273707"><ele>436.3917</ele><time>2025-12-13T23:41:05.000Z</time></trkpt>
        <trkpt lat="28.731117" lon="105.273645"><ele>435.34833</ele><time>2025-12-13T23:41:10.000Z</time></trkpt>
        <trkpt lat="28.731121" lon="105.273588"><ele>435.36832</ele><time>2025-12-13T23:41:16.000Z</time></trkpt>
        <trkpt lat="28.731115" lon="105.273524"><ele>436.32004</ele><time>2025-12-13T23:41:21.000Z</time></trkpt>
        <trkpt lat="28.73111" lon="105.273472"><ele>437.428</ele><time>2025-12-13T23:41:31.000Z</time></trkpt>
        <trkpt lat="28.731129" lon="105.273424"><ele>437.98306</ele><time>2025-12-13T23:41:39.000Z</time></trkpt>
        <trkpt lat="28.731162" lon="105.273374"><ele>438.23984</ele><time>2025-12-13T23:41:49.000Z</time></trkpt>
        <trkpt lat="28.731203" lon="105.27333"><ele>438.67688</ele><time>2025-12-13T23:41:56.000Z</time></trkpt>
        <trkpt lat="28.731254" lon="105.273313"><ele>436.5246</ele><time>2025-12-13T23:42:02.000Z</time></trkpt>
        <trkpt lat="28.731297" lon="105.273295"><ele>435.48517</ele><time>2025-12-13T23:42:16.000Z</time></trkpt>
        <trkpt lat="28.731344" lon="105.273313"><ele>434.4447</ele><time>2025-12-13T23:42:23.000Z</time></trkpt>
        <trkpt lat="28.731393" lon="105.273301"><ele>431.64883</ele><time>2025-12-13T23:42:31.000Z</time></trkpt>
        <trkpt lat="28.731437" lon="105.273271"><ele>431.56506</ele><time>2025-12-13T23:42:38.000Z</time></trkpt>
        <trkpt lat="28.731491" lon="105.273253"><ele>431.76193</ele><time>2025-12-13T23:42:45.000Z</time></trkpt>
        <trkpt lat="28.731536" lon="105.273241"><ele>429.77435</ele><time>2025-12-13T23:42:50.000Z</time></trkpt>
        <trkpt lat="28.731582" lon="105.273227"><ele>428.4167</ele><time>2025-12-13T23:42:55.000Z</time></trkpt>
        <trkpt lat="28.731647" lon="105.273221"><ele>425.1188</ele><time>2025-12-13T23:43:00.000Z</time></trkpt>
        <trkpt lat="28.731689" lon="105.273194"><ele>425.1074</ele><time>2025-12-13T23:43:04.000Z</time></trkpt>
        <trkpt lat="28.731726" lon="105.273158"><ele>425.14316</ele><time>2025-12-13T23:43:09.000Z</time></trkpt>
        <trkpt lat="28.731757" lon="105.273118"><ele>425.9847</ele><time>2025-12-13T23:43:14.000Z</time></trkpt>
        <trkpt lat="28.731784" lon="105.273065"><ele>419.7142</ele><time>2025-12-13T23:43:26.000Z</time></trkpt>
        <trkpt lat="28.731796" lon="105.273007"><ele>416.58627</ele><time>2025-12-13T23:43:32.000Z</time></trkpt>
        <trkpt lat="28.731794" lon="105.272949"><ele>411.9286</ele><time>2025-12-13T23:43:37.000Z</time></trkpt>
        <trkpt lat="28.731809" lon="105.272899"><ele>409.30664</ele><time>2025-12-13T23:43:42.000Z</time></trkpt>
        <trkpt lat="28.731823" lon="105.272844"><ele>407.696</ele><time>2025-12-13T23:43:48.000Z</time></trkpt>
        <trkpt lat="28.731814" lon="105.272789"><ele>404.8702</ele><time>2025-12-13T23:43:53.000Z</time></trkpt>
        <trkpt lat="28.731819" lon="105.272734"><ele>404.7009</ele><time>2025-12-13T23:44:04.000Z</time></trkpt>
        <trkpt lat="28.731824" lon="105.27268"><ele>402.90372</ele><time>2025-12-13T23:44:10.000Z</time></trkpt>
        <trkpt lat="28.731816" lon="105.272621"><ele>401.59506</ele><time>2025-12-13T23:44:15.000Z</time></trkpt>
        <trkpt lat="28.731818" lon="105.272567"><ele>402.1585</ele><time>2025-12-13T23:44:21.000Z</time></trkpt>
        <trkpt lat="28.731804" lon="105.272513"><ele>400.08716</ele><time>2025-12-13T23:44:26.000Z</time></trkpt>
        <trkpt lat="28.731783" lon="105.272459"><ele>399.2475</ele><time>2025-12-13T23:44:31.000Z</time></trkpt>
        <trkpt lat="28.731757" lon="105.272416"><ele>397.73816</ele><time>2025-12-13T23:44:37.000Z</time></trkpt>
        <trkpt lat="28.731712" lon="105.272398"><ele>399.20773</ele><time>2025-12-13T23:44:43.000Z</time></trkpt>
        <trkpt lat="28.731664" lon="105.272386"><ele>401.1079</ele><time>2025-12-13T23:44:58.000Z</time></trkpt>
        <trkpt lat="28.731645" lon="105.272338"><ele>401.55768</ele><time>2025-12-13T23:45:27.000Z</time></trkpt>
        <trkpt lat="28.731603" lon="105.272306"><ele>400.44495</ele><time>2025-12-13T23:45:39.000Z</time></trkpt>
        <trkpt lat="28.731574" lon="105.272264"><ele>399.87482</ele><time>2025-12-13T23:45:47.000Z</time></trkpt>
        <trkpt lat="28.731541" lon="105.27222"><ele>399.87683</ele><time>2025-12-13T23:45:55.000Z</time></trkpt>
        <trkpt lat="28.731516" lon="105.272177"><ele>399.8684</ele><time>2025-12-13T23:46:07.000Z</time></trkpt>
        <trkpt lat="28.731494" lon="105.272129"><ele>399.49313</ele><time>2025-12-13T23:46:20.000Z</time></trkpt>
        <trkpt lat="28.731482" lon="105.272073"><ele>398.87692</ele><time>2025-12-13T23:46:33.000Z</time></trkpt>
        <trkpt lat="28.731452" lon="105.272031"><ele>398.48367</ele><time>2025-12-13T23:46:52.000Z</time></trkpt>
        <trkpt lat="28.731499" lon="105.272051"><ele>395.27826</ele><time>2025-12-13T23:47:09.000Z</time></trkpt>
        <trkpt lat="28.731538" lon="105.272091"><ele>394.1095</ele><time>2025-12-13T23:47:13.000Z</time></trkpt>
        <trkpt lat="28.731583" lon="105.272108"><ele>392.10974</ele><time>2025-12-13T23:47:21.000Z</time></trkpt>
        <trkpt lat="28.73163" lon="105.272118"><ele>391.01688</ele><time>2025-12-13T23:47:32.000Z</time></trkpt>
        <trkpt lat="28.731607" lon="105.272072"><ele>388.2394</ele><time>2025-12-13T23:47:58.000Z</time></trkpt>
        <trkpt lat="28.731564" lon="105.272047"><ele>387.48798</ele><time>2025-12-13T23:48:07.000Z</time></trkpt>
        <trkpt lat="28.731552" lon="105.271996"><ele>387.32864</ele><time>2025-12-13T23:48:16.000Z</time></trkpt>
        <trkpt lat="28.731533" lon="105.271948"><ele>384.64398</ele><time>2025-12-13T23:48:32.000Z</time></trkpt>
        <trkpt lat="28.731525" lon="105.271891"><ele>382.90997</ele><time>2025-12-13T23:48:43.000Z</time></trkpt>
        <trkpt lat="28.731476" lon="105.271872"><ele>380.95618</ele><time>2025-12-13T23:48:51.000Z</time></trkpt>
        <trkpt lat="28.731438" lon="105.271841"><ele>381.78125</ele><time>2025-12-13T23:48:57.000Z</time></trkpt>
        <trkpt lat="28.731394" lon="105.271826"><ele>381.63647</ele><time>2025-12-13T23:49:10.000Z</time></trkpt>
        <trkpt lat="28.731345" lon="105.271817"><ele>382.13513</ele><time>2025-12-13T23:49:18.000Z</time></trkpt>
        <trkpt lat="28.731336" lon="105.271767"><ele>382.05014</ele><time>2025-12-13T23:49:24.000Z</time></trkpt>
        <trkpt lat="28.731356" lon="105.27171"><ele>379.0918</ele><time>2025-12-13T23:49:32.000Z</time></trkpt>
        <trkpt lat="28.731402" lon="105.271696"><ele>373.9405</ele><time>2025-12-13T23:49:53.000Z</time></trkpt>
        <trkpt lat="28.731432" lon="105.271658"><ele>370.10425</ele><time>2025-12-13T23:50:19.000Z</time></trkpt>
        <trkpt lat="28.731478" lon="105.271636"><ele>367.14017</ele><time>2025-12-13T23:50:37.000Z</time></trkpt>
        <trkpt lat="28.731454" lon="105.271581"><ele>364.47095</ele><time>2025-12-13T23:50:55.000Z</time></trkpt>
        <trkpt lat="28.73141" lon="105.271556"><ele>363.4475</ele><time>2025-12-13T23:51:01.000Z</time></trkpt>
        <trkpt lat="28.731373" lon="105.271595"><ele>365.49985</ele><time>2025-12-13T23:51:18.000Z</time></trkpt>
        <trkpt lat="28.731337" lon="105.271561"><ele>366.71573</ele><time>2025-12-13T23:51:27.000Z</time></trkpt>
        <trkpt lat="28.731299" lon="105.271531"><ele>365.88535</ele><time>2025-12-13T23:51:38.000Z</time></trkpt>
        <trkpt lat="28.731254" lon="105.271515"><ele>366.2796</ele><time>2025-12-13T23:52:00.000Z</time></trkpt>
        <trkpt lat="28.731209" lon="105.271498"><ele>364.58447</ele><time>2025-12-13T23:52:11.000Z</time></trkpt>
        <trkpt lat="28.731167" lon="105.271472"><ele>363.76144</ele><time>2025-12-13T23:52:17.000Z</time></trkpt>
        <trkpt lat="28.731123" lon="105.271449"><ele>363.64624</ele><time>2025-12-13T23:52:37.000Z</time></trkpt>
        <trkpt lat="28.731171" lon="105.271466"><ele>363.3857</ele><time>2025-12-13T23:52:56.000Z</time></trkpt>
        <trkpt lat="28.731213" lon="105.271447"><ele>361.75702</ele><time>2025-12-13T23:53:12.000Z</time></trkpt>
        <trkpt lat="28.73123" lon="105.271397"><ele>359.65497</ele><time>2025-12-13T23:53:23.000Z</time></trkpt>
        <trkpt lat="28.731212" lon="105.27134"><ele>359.12054</ele><time>2025-12-13T23:53:30.000Z</time></trkpt>
        <trkpt lat="28.731172" lon="105.271364"><ele>356.07993</ele><time>2025-12-13T23:53:52.000Z</time></trkpt>
        <trkpt lat="28.731169" lon="105.271313"><ele>353.80182</ele><time>2025-12-13T23:54:21.000Z</time></trkpt>
        <trkpt lat="28.731182" lon="105.271261"><ele>351.07547</ele><time>2025-12-13T23:54:35.000Z</time></trkpt>
        <trkpt lat="28.731182" lon="105.271205"><ele>347.98685</ele><time>2025-12-13T23:54:50.000Z</time></trkpt>
        <trkpt lat="28.731208" lon="105.271158"><ele>345.19708</ele><time>2025-12-13T23:55:09.000Z</time></trkpt>
        <trkpt lat="28.731218" lon="105.271102"><ele>341.85452</ele><time>2025-12-13T23:55:20.000Z</time></trkpt>
        <trkpt lat="28.731234" lon="105.271051"><ele>339.2274</ele><time>2025-12-13T23:55:28.000Z</time></trkpt>
        <trkpt lat="28.731235" lon="105.270998"><ele>337.2325</ele><time>2025-12-13T23:55:40.000Z</time></trkpt>
        <trkpt lat="28.731257" lon="105.270951"><ele>335.85266</ele><time>2025-12-13T23:55:57.000Z</time></trkpt>
        <trkpt lat="28.731293" lon="105.270912"><ele>334.12537</ele><time>2025-12-13T23:56:07.000Z</time></trkpt>
        <trkpt lat="28.731333" lon="105.270878"><ele>332.5124</ele><time>2025-12-13T23:56:12.000Z</time></trkpt>
        <trkpt lat="28.731374" lon="105.270848"><ele>331.7693</ele><time>2025-12-13T23:56:17.000Z</time></trkpt>
        <trkpt lat="28.731424" lon="105.270838"><ele>331.0157</ele><time>2025-12-13T23:56:22.000Z</time></trkpt>
        <trkpt lat="28.731469" lon="105.270825"><ele>330.53653</ele><time>2025-12-13T23:56:27.000Z</time></trkpt>
        <trkpt lat="28.731512" lon="105.270794"><ele>328.87973</ele><time>2025-12-13T23:56:36.000Z</time></trkpt>
        <trkpt lat="28.731553" lon="105.270822"><ele>328.27402</ele><time>2025-12-13T23:56:44.000Z</time></trkpt>
        <trkpt lat="28.731601" lon="105.270852"><ele>328.21762</ele><time>2025-12-13T23:56:49.000Z</time></trkpt>
        <trkpt lat="28.731652" lon="105.270852"><ele>328.1652</ele><time>2025-12-13T23:56:54.000Z</time></trkpt>
        <trkpt lat="28.731704" lon="105.270855"><ele>327.33322</ele><time>2025-12-13T23:56:59.000Z</time></trkpt>
        <trkpt lat="28.731752" lon="105.270843"><ele>326.64017</ele><time>2025-12-13T23:57:05.000Z</time></trkpt>
        <trkpt lat="28.731761" lon="105.270785"><ele>325.90076</ele><time>2025-12-13T23:57:08.000Z</time></trkpt>
        <trkpt lat="28.73176" lon="105.270733"><ele>324.56613</ele><time>2025-12-13T23:57:12.000Z</time></trkpt>
        <trkpt lat="28.73176" lon="105.270678"><ele>323.49167</ele><time>2025-12-13T23:57:17.000Z</time></trkpt>
        <trkpt lat="28.731738" lon="105.270629"><ele>322.4482</ele><time>2025-12-13T23:57:24.000Z</time></trkpt>
        <trkpt lat="28.731753" lon="105.270576"><ele>321.38263</ele><time>2025-12-13T23:57:31.000Z</time></trkpt>
        <trkpt lat="28.731738" lon="105.270525"><ele>320.51895</ele><time>2025-12-13T23:57:37.000Z</time></trkpt>
        <trkpt lat="28.731755" lon="105.270575"><ele>321.15112</ele><time>2025-12-13T23:57:51.000Z</time></trkpt>
        <trkpt lat="28.731753" lon="105.270634"><ele>321.88248</ele><time>2025-12-13T23:57:58.000Z</time></trkpt>
        <trkpt lat="28.731777" lon="105.270687"><ele>322.30493</ele><time>2025-12-13T23:58:12.000Z</time></trkpt>
        <trkpt lat="28.731821" lon="105.270722"><ele>322.2968</ele><time>2025-12-13T23:58:20.000Z</time></trkpt>
        <trkpt lat="28.731852" lon="105.270763"><ele>322.59265</ele><time>2025-12-13T23:58:33.000Z</time></trkpt>
        <trkpt lat="28.7319" lon="105.270789"><ele>322.0346</ele><time>2025-12-13T23:58:48.000Z</time></trkpt>
        <trkpt lat="28.73193" lon="105.27083"><ele>322.48392</ele><time>2025-12-13T23:58:54.000Z</time></trkpt>
        <trkpt lat="28.731966" lon="105.270861"><ele>322.98</ele><time>2025-12-13T23:58:59.000Z</time></trkpt>
        <trkpt lat="28.732001" lon="105.270896"><ele>321.82236</ele><time>2025-12-13T23:59:05.000Z</time></trkpt>
        <trkpt lat="28.732053" lon="105.270913"><ele>320.44238</ele><time>2025-12-13T23:59:11.000Z</time></trkpt>
        <trkpt lat="28.732103" lon="105.270924"><ele>318.66437</ele><time>2025-12-13T23:59:16.000Z</time></trkpt>
        <trkpt lat="28.732149" lon="105.270941"><ele>317.05118</ele><time>2025-12-13T23:59:23.000Z</time></trkpt>
        <trkpt lat="28.732194" lon="105.270983"><ele>314.992</ele><time>2025-12-13T23:59:29.000Z</time></trkpt>
        <trkpt lat="28.732218" lon="105.271032"><ele>313.8651</ele><time>2025-12-13T23:59:35.000Z</time></trkpt>
        <trkpt lat="28.732237" lon="105.271082"><ele>314.558</ele><time>2025-12-13T23:59:40.000Z</time></trkpt>
        <trkpt lat="28.732264" lon="105.271125"><ele>313.9124</ele><time>2025-12-13T23:59:45.000Z</time></trkpt>
        <trkpt lat="28.732289" lon="105.271171"><ele>314.47046</ele><time>2025-12-13T23:59:50.000Z</time></trkpt>
        <trkpt lat="28.732309" lon="105.271217"><ele>315.6754</ele><time>2025-12-13T23:59:55.000Z</time></trkpt>
        <trkpt lat="28.732347" lon="105.27127"><ele>315.71698</ele><time>2025-12-14T00:00:00.000Z</time></trkpt>
        <trkpt lat="28.732382" lon="105.271303"><ele>316.39215</ele><time>2025-12-14T00:00:07.000Z</time></trkpt>
        <trkpt lat="28.732428" lon="105.271307"><ele>316.2792</ele><time>2025-12-14T00:00:15.000Z</time></trkpt>
        <trkpt lat="28.73247" lon="105.271337"><ele>315.39276</ele><time>2025-12-14T00:00:21.000Z</time></trkpt>
        <trkpt lat="28.732508" lon="105.271371"><ele>314.60977</ele><time>2025-12-14T00:00:28.000Z</time></trkpt>
        <trkpt lat="28.73255" lon="105.271417"><ele>313.99884</ele><time>2025-12-14T00:00:34.000Z</time></trkpt>
        <trkpt lat="28.732574" lon="105.271463"><ele>313.61105</ele><time>2025-12-14T00:00:40.000Z</time></trkpt>
        <trkpt lat="28.73261" lon="105.271499"><ele>312.8695</ele><time>2025-12-14T00:00:47.000Z</time></trkpt>
        <trkpt lat="28.732648" lon="105.271536"><ele>311.45932</ele><time>2025-12-14T00:00:53.000Z</time></trkpt>
        <trkpt lat="28.732692" lon="105.271568"><ele>310.65765</ele><time>2025-12-14T00:01:00.000Z</time></trkpt>
        <trkpt lat="28.732738" lon="105.271581"><ele>307.7788</ele><time>2025-12-14T00:01:11.000Z</time></trkpt>
        <trkpt lat="28.73277" lon="105.27154"><ele>305.79202</ele><time>2025-12-14T00:01:17.000Z</time></trkpt>
        <trkpt lat="28.732817" lon="105.271512"><ele>304.08624</ele><time>2025-12-14T00:01:26.000Z</time></trkpt>
        <trkpt lat="28.732848" lon="105.271471"><ele>302.1488</ele><time>2025-12-14T00:01:34.000Z</time></trkpt>
        <trkpt lat="28.732831" lon="105.271413"><ele>302.48093</ele><time>2025-12-14T00:01:39.000Z</time></trkpt>
        <trkpt lat="28.732791" lon="105.271385"><ele>302.8139</ele><time>2025-12-14T00:01:47.000Z</time></trkpt>
        <trkpt lat="28.732762" lon="105.271344"><ele>303.25317</ele><time>2025-12-14T00:02:01.000Z</time></trkpt>
        <trkpt lat="28.732732" lon="105.271295"><ele>303.5864</ele><time>2025-12-14T00:02:11.000Z</time></trkpt>
        <trkpt lat="28.73275" lon="105.271345"><ele>303.19226</ele><time>2025-12-14T00:02:33.000Z</time></trkpt>
        <trkpt lat="28.732793" lon="105.271362"><ele>302.92056</ele><time>2025-12-14T00:03:00.000Z</time></trkpt>
        <trkpt lat="28.732782" lon="105.271412"><ele>303.77985</ele><time>2025-12-14T00:03:40.000Z</time></trkpt>
        <trkpt lat="28.732809" lon="105.271461"><ele>304.41095</ele><time>2025-12-14T00:04:17.000Z</time></trkpt>
        <trkpt lat="28.732851" lon="105.271486"><ele>303.64865</ele><time>2025-12-14T00:04:23.000Z</time></trkpt>
        <trkpt lat="28.732895" lon="105.271472"><ele>301.25223</ele><time>2025-12-14T00:04:32.000Z</time></trkpt>
        <trkpt lat="28.732898" lon="105.271418"><ele>299.90192</ele><time>2025-12-14T00:04:38.000Z</time></trkpt>
        <trkpt lat="28.732935" lon="105.271388"><ele>299.94608</ele><time>2025-12-14T00:04:45.000Z</time></trkpt>
        <trkpt lat="28.732982" lon="105.271377"><ele>299.7961</ele><time>2025-12-14T00:04:52.000Z</time></trkpt>
        <trkpt lat="28.733026" lon="105.271345"><ele>297.75977</ele><time>2025-12-14T00:05:00.000Z</time></trkpt>
        <trkpt lat="28.733048" lon="105.271296"><ele>295.7505</ele><time>2025-12-14T00:05:15.000Z</time></trkpt>
        <trkpt lat="28.733075" lon="105.27125"><ele>294.33984</ele><time>2025-12-14T00:05:27.000Z</time></trkpt>
        <trkpt lat="28.7331" lon="105.271207"><ele>292.175</ele><time>2025-12-14T00:05:34.000Z</time></trkpt>
        <trkpt lat="28.733148" lon="105.271185"><ele>289.6747</ele><time>2025-12-14T00:05:48.000Z</time></trkpt>
        <trkpt lat="28.733187" lon="105.271226"><ele>287.81793</ele><time>2025-12-14T00:05:57.000Z</time></trkpt>
        <trkpt lat="28.733208" lon="105.271276"><ele>287.6306</ele><time>2025-12-14T00:06:02.000Z</time></trkpt>
        <trkpt lat="28.733232" lon="105.271324"><ele>287.49832</ele><time>2025-12-14T00:06:08.000Z</time></trkpt>
        <trkpt lat="28.733243" lon="105.271381"><ele>287.37256</ele><time>2025-12-14T00:06:15.000Z</time></trkpt>
        <trkpt lat="28.733267" lon="105.271433"><ele>287.2994</ele><time>2025-12-14T00:06:23.000Z</time></trkpt>
        <trkpt lat="28.733287" lon="105.271482"><ele>287.16327</ele><time>2025-12-14T00:06:28.000Z</time></trkpt>
        <trkpt lat="28.733298" lon="105.271534"><ele>286.95712</ele><time>2025-12-14T00:06:33.000Z</time></trkpt>
        <trkpt lat="28.733309" lon="105.271591"><ele>287.09705</ele><time>2025-12-14T00:06:38.000Z</time></trkpt>
        <trkpt lat="28.733337" lon="105.271632"><ele>286.89404</ele><time>2025-12-14T00:06:55.000Z</time></trkpt>
        <trkpt lat="28.73331" lon="105.271585"><ele>287.18378</ele><time>2025-12-14T00:07:24.000Z</time></trkpt>
        <trkpt lat="28.733284" lon="105.271535"><ele>287.2529</ele><time>2025-12-14T00:07:33.000Z</time></trkpt>
        <trkpt lat="28.73327" lon="105.271485"><ele>287.39944</ele><time>2025-12-14T00:07:38.000Z</time></trkpt>
        <trkpt lat="28.733252" lon="105.271435"><ele>287.81454</ele><time>2025-12-14T00:07:43.000Z</time></trkpt>
        <trkpt lat="28.733241" lon="105.271377"><ele>287.63162</ele><time>2025-12-14T00:07:48.000Z</time></trkpt>
        <trkpt lat="28.73322" lon="105.271327"><ele>287.7135</ele><time>2025-12-14T00:07:54.000Z</time></trkpt>
        <trkpt lat="28.7332" lon="105.271274"><ele>287.66397</ele><time>2025-12-14T00:07:59.000Z</time></trkpt>
        <trkpt lat="28.733215" lon="105.271226"><ele>287.8108</ele><time>2025-12-14T00:08:08.000Z</time></trkpt>
        <trkpt lat="28.73319" lon="105.271166"><ele>286.5613</ele><time>2025-12-14T00:08:14.000Z</time></trkpt>
        <trkpt lat="28.733177" lon="105.271109"><ele>285.77298</ele><time>2025-12-14T00:08:20.000Z</time></trkpt>
        <trkpt lat="28.733155" lon="105.271063"><ele>286.80084</ele><time>2025-12-14T00:08:25.000Z</time></trkpt>
        <trkpt lat="28.733127" lon="105.271014"><ele>284.80872</ele><time>2025-12-14T00:08:31.000Z</time></trkpt>
        <trkpt lat="28.733095" lon="105.270967"><ele>284.76105</ele><time>2025-12-14T00:08:36.000Z</time></trkpt>
        <trkpt lat="28.733071" lon="105.270918"><ele>283.86035</ele><time>2025-12-14T00:08:41.000Z</time></trkpt>
        <trkpt lat="28.73305" lon="105.27087"><ele>282.85217</ele><time>2025-12-14T00:08:46.000Z</time></trkpt>
        <trkpt lat="28.733027" lon="105.27082"><ele>281.9834</ele><time>2025-12-14T00:08:51.000Z</time></trkpt>
        <trkpt lat="28.733003" lon="105.270776"><ele>281.57635</ele><time>2025-12-14T00:08:56.000Z</time></trkpt>
        <trkpt lat="28.732985" lon="105.27072"><ele>280.36844</ele><time>2025-12-14T00:09:02.000Z</time></trkpt>
        <trkpt lat="28.73296" lon="105.270673"><ele>279.93976</ele><time>2025-12-14T00:09:06.000Z</time></trkpt>
        <trkpt lat="28.732924" lon="105.270633"><ele>279.9373</ele><time>2025-12-14T00:09:12.000Z</time></trkpt>
        <trkpt lat="28.732896" lon="105.270585"><ele>280.4642</ele><time>2025-12-14T00:09:17.000Z</time></trkpt>
        <trkpt lat="28.732854" lon="105.270549"><ele>279.8113</ele><time>2025-12-14T00:09:22.000Z</time></trkpt>
        <trkpt lat="28.732829" lon="105.270493"><ele>280.24005</ele><time>2025-12-14T00:09:28.000Z</time></trkpt>
        <trkpt lat="28.7328" lon="105.270445"><ele>279.54492</ele><time>2025-12-14T00:09:33.000Z</time></trkpt>
        <trkpt lat="28.732779" lon="105.270389"><ele>279.47595</ele><time>2025-12-14T00:09:38.000Z</time></trkpt>
        <trkpt lat="28.732763" lon="105.270337"><ele>279.4492</ele><time>2025-12-14T00:09:42.000Z</time></trkpt>
        <trkpt lat="28.732752" lon="105.270284"><ele>279.02945</ele><time>2025-12-14T00:09:46.000Z</time></trkpt>
        <trkpt lat="28.73275" lon="105.270231"><ele>278.54828</ele><time>2025-12-14T00:09:51.000Z</time></trkpt>
        <trkpt lat="28.732745" lon="105.270175"><ele>278.11975</ele><time>2025-12-14T00:09:56.000Z</time></trkpt>
        <trkpt lat="28.732735" lon="105.270116"><ele>277.30554</ele><time>2025-12-14T00:10:02.000Z</time></trkpt>
        <trkpt lat="28.732722" lon="105.270062"><ele>276.02936</ele><time>2025-12-14T00:10:07.000Z</time></trkpt>
        <trkpt lat="28.732693" lon="105.270004"><ele>276.26837</ele><time>2025-12-14T00:10:17.000Z</time></trkpt>
        <trkpt lat="28.732665" lon="105.269955"><ele>276.10886</ele><time>2025-12-14T00:10:22.000Z</time></trkpt>
        <trkpt lat="28.732643" lon="105.269904"><ele>275.22906</ele><time>2025-12-14T00:10:28.000Z</time></trkpt>
        <trkpt lat="28.732638" lon="105.269847"><ele>275.55835</ele><time>2025-12-14T00:10:33.000Z</time></trkpt>
        <trkpt lat="28.732621" lon="105.269799"><ele>274.43536</ele><time>2025-12-14T00:10:38.000Z</time></trkpt>
        <trkpt lat="28.732596" lon="105.26974"><ele>274.3463</ele><time>2025-12-14T00:10:44.000Z</time></trkpt>
        <trkpt lat="28.732572" lon="105.269685"><ele>274.23746</ele><time>2025-12-14T00:10:49.000Z</time></trkpt>
        <trkpt lat="28.732556" lon="105.269635"><ele>273.7099</ele><time>2025-12-14T00:10:53.000Z</time></trkpt>
        <trkpt lat="28.732535" lon="105.269588"><ele>273.1955</ele><time>2025-12-14T00:10:57.000Z</time></trkpt>
        <trkpt lat="28.732508" lon="105.269541"><ele>272.9549</ele><time>2025-12-14T00:11:03.000Z</time></trkpt>
        <trkpt lat="28.732483" lon="105.269495"><ele>272.2223</ele><time>2025-12-14T00:11:09.000Z</time></trkpt>
        <trkpt lat="28.732473" lon="105.269442"><ele>271.87912</ele><time>2025-12-14T00:11:17.000Z</time></trkpt>
        <trkpt lat="28.732441" lon="105.269401"><ele>270.89554</ele><time>2025-12-14T00:11:24.000Z</time></trkpt>
        <trkpt lat="28.732416" lon="105.269351"><ele>270.3235</ele><time>2025-12-14T00:11:29.000Z</time></trkpt>
        <trkpt lat="28.732392" lon="105.269306"><ele>269.79608</ele><time>2025-12-14T00:11:34.000Z</time></trkpt>
        <trkpt lat="28.732366" lon="105.269263"><ele>269.1303</ele><time>2025-12-14T00:11:40.000Z</time></trkpt>
        <trkpt lat="28.732339" lon="105.269218"><ele>268.28934</ele><time>2025-12-14T00:11:44.000Z</time></trkpt>
        <trkpt lat="28.73231" lon="105.269168"><ele>267.90076</ele><time>2025-12-14T00:11:49.000Z</time></trkpt>
        <trkpt lat="28.732284" lon="105.269122"><ele>266.84845</ele><time>2025-12-14T00:11:55.000Z</time></trkpt>
        <trkpt lat="28.732275" lon="105.26907"><ele>266.38867</ele><time>2025-12-14T00:11:59.000Z</time></trkpt>
        <trkpt lat="28.732275" lon="105.269018"><ele>266.13217</ele><time>2025-12-14T00:12:03.000Z</time></trkpt>
        <trkpt lat="28.732316" lon="105.268996"><ele>264.57214</ele><time>2025-12-14T00:12:08.000Z</time></trkpt>
        <trkpt lat="28.732346" lon="105.269045"><ele>265.6974</ele><time>2025-12-14T00:12:18.000Z</time></trkpt>
        <trkpt lat="28.732383" lon="105.269092"><ele>265.46198</ele><time>2025-12-14T00:12:24.000Z</time></trkpt>
        <trkpt lat="28.732409" lon="105.269142"><ele>265.396</ele><time>2025-12-14T00:12:30.000Z</time></trkpt>
        <trkpt lat="28.732437" lon="105.269182"><ele>266.4136</ele><time>2025-12-14T00:12:38.000Z</time></trkpt>
        <trkpt lat="28.732472" lon="105.269221"><ele>266.80203</ele><time>2025-12-14T00:12:46.000Z</time></trkpt>
        <trkpt lat="28.732505" lon="105.269266"><ele>267.06683</ele><time>2025-12-14T00:12:51.000Z</time></trkpt>
        <trkpt lat="28.732543" lon="105.269316"><ele>266.918</ele><time>2025-12-14T00:12:56.000Z</time></trkpt>
        <trkpt lat="28.732578" lon="105.269354"><ele>266.44363</ele><time>2025-12-14T00:13:00.000Z</time></trkpt>
        <trkpt lat="28.732616" lon="105.26939"><ele>266.26636</ele><time>2025-12-14T00:13:04.000Z</time></trkpt>
        <trkpt lat="28.732636" lon="105.269438"><ele>266.00217</ele><time>2025-12-14T00:13:09.000Z</time></trkpt>
        <trkpt lat="28.732652" lon="105.269495"><ele>266.1926</ele><time>2025-12-14T00:13:13.000Z</time></trkpt>
        <trkpt lat="28.732656" lon="105.269551"><ele>267.21844</ele><time>2025-12-14T00:13:17.000Z</time></trkpt>
        <trkpt lat="28.732663" lon="105.269612"><ele>267.66434</ele><time>2025-12-14T00:13:21.000Z</time></trkpt>
        <trkpt lat="28.732694" lon="105.269653"><ele>269.73596</ele><time>2025-12-14T00:13:35.000Z</time></trkpt>
        <trkpt lat="28.732734" lon="105.26963"><ele>267.20364</ele><time>2025-12-14T00:14:36.000Z</time></trkpt>
        <trkpt lat="28.732726" lon="105.26958"><ele>266.4875</ele><time>2025-12-14T00:15:12.000Z</time></trkpt>
        <trkpt lat="28.732772" lon="105.269567"><ele>266.052</ele><time>2025-12-14T00:18:41.000Z</time></trkpt>
        <trkpt lat="28.732746" lon="105.26961"><ele>265.9652</ele><time>2025-12-14T00:20:03.000Z</time></trkpt>
        <trkpt lat="28.732696" lon="105.269628"><ele>266.96774</ele><time>2025-12-14T00:22:21.000Z</time></trkpt>
        <trkpt lat="28.732741" lon="105.269612"><ele>267.3413</ele><time>2025-12-14T00:22:27.000Z</time></trkpt>
        <trkpt lat="28.732756" lon="105.269665"><ele>266.5329</ele><time>2025-12-14T00:22:34.000Z</time></trkpt>
        <trkpt lat="28.732799" lon="105.269704"><ele>267.03342</ele><time>2025-12-14T00:23:07.000Z</time></trkpt>
        <trkpt lat="28.732829" lon="105.269743"><ele>267.0553</ele><time>2025-12-14T00:23:08.000Z</time></trkpt>
        <trkpt lat="28.732872" lon="105.269805"><ele>266.5371</ele><time>2025-12-14T00:23:09.000Z</time></trkpt>
        <trkpt lat="28.732918" lon="105.269865"><ele>266.93945</ele><time>2025-12-14T00:23:10.000Z</time></trkpt>
        <trkpt lat="28.732966" lon="105.26994"><ele>266.7502</ele><time>2025-12-14T00:23:11.000Z</time></trkpt>
        <trkpt lat="28.733011" lon="105.270017"><ele>266.46646</ele><time>2025-12-14T00:23:12.000Z</time></trkpt>
        <trkpt lat="28.733068" lon="105.270103"><ele>266.26636</ele><time>2025-12-14T00:23:13.000Z</time></trkpt>
        <trkpt lat="28.733121" lon="105.270191"><ele>265.69223</ele><time>2025-12-14T00:23:14.000Z</time></trkpt>
        <trkpt lat="28.733173" lon="105.27027"><ele>265.644</ele><time>2025-12-14T00:23:15.000Z</time></trkpt>
        <trkpt lat="28.733221" lon="105.270329"><ele>266.8383</ele><time>2025-12-14T00:23:16.000Z</time></trkpt>
        <trkpt lat="28.733269" lon="105.270421"><ele>266.75278</ele><time>2025-12-14T00:23:17.000Z</time></trkpt>
        <trkpt lat="28.733317" lon="105.270511"><ele>266.45294</ele><time>2025-12-14T00:23:18.000Z</time></trkpt>
        <trkpt lat="28.733367" lon="105.270601"><ele>267.62598</ele><time>2025-12-14T00:23:19.000Z</time></trkpt>
        <trkpt lat="28.733428" lon="105.270688"><ele>267.8456</ele><time>2025-12-14T00:23:20.000Z</time></trkpt>
        <trkpt lat="28.733484" lon="105.270781"><ele>267.13074</ele><time>2025-12-14T00:23:21.000Z</time></trkpt>
        <trkpt lat="28.733545" lon="105.270868"><ele>267.08667</ele><time>2025-12-14T00:23:22.000Z</time></trkpt>
        <trkpt lat="28.733603" lon="105.270957"><ele>266.5753</ele><time>2025-12-14T00:23:23.000Z</time></trkpt>
        <trkpt lat="28.733661" lon="105.27105"><ele>266.53937</ele><time>2025-12-14T00:23:24.000Z</time></trkpt>
        <trkpt lat="28.733718" lon="105.271148"><ele>266.04596</ele><time>2025-12-14T00:23:25.000Z</time></trkpt>
        <trkpt lat="28.733775" lon="105.271244"><ele>266.1866</ele><time>2025-12-14T00:23:26.000Z</time></trkpt>
        <trkpt lat="28.733847" lon="105.271332"><ele>265.5603</ele><time>2025-12-14T00:23:27.000Z</time></trkpt>
        <trkpt lat="28.733912" lon="105.271427"><ele>265.62057</ele><time>2025-12-14T00:23:28.000Z</time></trkpt>
        <trkpt lat="28.73397" lon="105.271518"><ele>264.49603</ele><time>2025-12-14T00:23:29.000Z</time></trkpt>
        <trkpt lat="28.734029" lon="105.271614"><ele>263.95715</ele><time>2025-12-14T00:23:30.000Z</time></trkpt>
        <trkpt lat="28.734099" lon="105.271708"><ele>263.5927</ele><time>2025-12-14T00:23:31.000Z</time></trkpt>
        <trkpt lat="28.734153" lon="105.271802"><ele>262.9535</ele><time>2025-12-14T00:23:32.000Z</time></trkpt>
        <trkpt lat="28.734217" lon="105.271899"><ele>262.70694</ele><time>2025-12-14T00:23:33.000Z</time></trkpt>
        <trkpt lat="28.734279" lon="105.271984"><ele>262.72342</ele><time>2025-12-14T00:23:34.000Z</time></trkpt>
        <trkpt lat="28.734342" lon="105.272077"><ele>261.89575</ele><time>2025-12-14T00:23:35.000Z</time></trkpt>
        <trkpt lat="28.734406" lon="105.272166"><ele>261.753</ele><time>2025-12-14T00:23:36.000Z</time></trkpt>
        <trkpt lat="28.734462" lon="105.272262"><ele>261.41617</ele><time>2025-12-14T00:23:37.000Z</time></trkpt>
        <trkpt lat="28.734515" lon="105.272351"><ele>261.55338</ele><time>2025-12-14T00:23:38.000Z</time></trkpt>
        <trkpt lat="28.734568" lon="105.27244"><ele>261.6774</ele><time>2025-12-14T00:23:39.000Z</time></trkpt>
        <trkpt lat="28.734617" lon="105.272523"><ele>261.79282</ele><time>2025-12-14T00:23:40.000Z</time></trkpt>
        <trkpt lat="28.734669" lon="105.272609"><ele>261.92368</ele><time>2025-12-14T00:23:41.000Z</time></trkpt>
        <trkpt lat="28.734723" lon="105.272687"><ele>261.79123</ele><time>2025-12-14T00:23:42.000Z</time></trkpt>
        <trkpt lat="28.734778" lon="105.272764"><ele>261.23962</ele><time>2025-12-14T00:23:43.000Z</time></trkpt>
        <trkpt lat="28.734818" lon="105.272843"><ele>260.7941</ele><time>2025-12-14T00:23:44.000Z</time></trkpt>
        <trkpt lat="28.734853" lon="105.272914"><ele>260.27414</ele><time>2025-12-14T00:23:45.000Z</time></trkpt>
        <trkpt lat="28.734893" lon="105.272998"><ele>259.937</ele><time>2025-12-14T00:23:46.000Z</time></trkpt>
        <trkpt lat="28.734942" lon="105.273082"><ele>259.68298</ele><time>2025-12-14T00:23:47.000Z</time></trkpt>
        <trkpt lat="28.735001" lon="105.273174"><ele>259.4803</ele><time>2025-12-14T00:23:48.000Z</time></trkpt>
        <trkpt lat="28.735067" lon="105.273252"><ele>259.58685</ele><time>2025-12-14T00:23:49.000Z</time></trkpt>
        <trkpt lat="28.735128" lon="105.273334"><ele>259.4535</ele><time>2025-12-14T00:23:50.000Z</time></trkpt>
        <trkpt lat="28.735176" lon="105.273406"><ele>259.42352</ele><time>2025-12-14T00:23:51.000Z</time></trkpt>
        <trkpt lat="28.735216" lon="105.27348"><ele>259.08682</ele><time>2025-12-14T00:23:52.000Z</time></trkpt>
        <trkpt lat="28.73524" lon="105.273565"><ele>258.6319</ele><time>2025-12-14T00:23:53.000Z</time></trkpt>
        <trkpt lat="28.735263" lon="105.273663"><ele>257.90414</ele><time>2025-12-14T00:23:54.000Z</time></trkpt>
        <trkpt lat="28.73529" lon="105.273765"><ele>257.05347</ele><time>2025-12-14T00:23:55.000Z</time></trkpt>
        <trkpt lat="28.735321" lon="105.273863"><ele>255.98001</ele><time>2025-12-14T00:23:56.000Z</time></trkpt>
        <trkpt lat="28.735358" lon="105.273965"><ele>255.0463</ele><time>2025-12-14T00:23:57.000Z</time></trkpt>
        <trkpt lat="28.735397" lon="105.274067"><ele>254.36482</ele><time>2025-12-14T00:23:58.000Z</time></trkpt>
        <trkpt lat="28.735438" lon="105.274167"><ele>253.83212</ele><time>2025-12-14T00:23:59.000Z</time></trkpt>
        <trkpt lat="28.735477" lon="105.27426"><ele>253.4884</ele><time>2025-12-14T00:24:00.000Z</time></trkpt>
        <trkpt lat="28.735519" lon="105.274348"><ele>253.48065</ele><time>2025-12-14T00:24:01.000Z</time></trkpt>
        <trkpt lat="28.735551" lon="105.274434"><ele>253.74156</ele><time>2025-12-14T00:24:02.000Z</time></trkpt>
        <trkpt lat="28.735582" lon="105.27452"><ele>253.96663</ele><time>2025-12-14T00:24:03.000Z</time></trkpt>
        <trkpt lat="28.735609" lon="105.274614"><ele>254.15619</ele><time>2025-12-14T00:24:04.000Z</time></trkpt>
        <trkpt lat="28.73564" lon="105.274707"><ele>254.22432</ele><time>2025-12-14T00:24:05.000Z</time></trkpt>
        <trkpt lat="28.73567" lon="105.274792"><ele>254.41245</ele><time>2025-12-14T00:24:06.000Z</time></trkpt>
        <trkpt lat="28.735701" lon="105.274882"><ele>254.82146</ele><time>2025-12-14T00:24:07.000Z</time></trkpt>
        <trkpt lat="28.735739" lon="105.274983"><ele>255.23436</ele><time>2025-12-14T00:24:08.000Z</time></trkpt>
        <trkpt lat="28.735782" lon="105.275074"><ele>255.73523</ele><time>2025-12-14T00:24:09.000Z</time></trkpt>
        <trkpt lat="28.735821" lon="105.275163"><ele>256.3707</ele><time>2025-12-14T00:24:10.000Z</time></trkpt>
        <trkpt lat="28.735856" lon="105.275245"><ele>257.1748</ele><time>2025-12-14T00:24:11.000Z</time></trkpt>
        <trkpt lat="28.735888" lon="105.275325"><ele>258.0815</ele><time>2025-12-14T00:24:12.000Z</time></trkpt>
        <trkpt lat="28.735917" lon="105.275394"><ele>259.0791</ele><time>2025-12-14T00:24:13.000Z</time></trkpt>
        <trkpt lat="28.735946" lon="105.275453"><ele>260.34277</ele><time>2025-12-14T00:24:14.000Z</time></trkpt>
        <trkpt lat="28.735974" lon="105.275501"><ele>261.42282</ele><time>2025-12-14T00:24:15.000Z</time></trkpt>
        <trkpt lat="28.736029" lon="105.275583"><ele>263.3261</ele><time>2025-12-14T00:24:17.000Z</time></trkpt>
        <trkpt lat="28.736059" lon="105.275626"><ele>264.06204</ele><time>2025-12-14T00:24:18.000Z</time></trkpt>
        <trkpt lat="28.736088" lon="105.275674"><ele>264.76288</ele><time>2025-12-14T00:24:19.000Z</time></trkpt>
        <trkpt lat="28.736114" lon="105.275721"><ele>265.38104</ele><time>2025-12-14T00:24:20.000Z</time></trkpt>
        <trkpt lat="28.736142" lon="105.275774"><ele>265.73727</ele><time>2025-12-14T00:24:21.000Z</time></trkpt>
        <trkpt lat="28.736168" lon="105.275826"><ele>266.29428</ele><time>2025-12-14T00:24:22.000Z</time></trkpt>
        <trkpt lat="28.73619" lon="105.275921"><ele>266.8748</ele><time>2025-12-14T00:24:24.000Z</time></trkpt>
        <trkpt lat="28.736221" lon="105.275997"><ele>267.2572</ele><time>2025-12-14T00:24:26.000Z</time></trkpt>
        <trkpt lat="28.736226" lon="105.276058"><ele>267.3631</ele><time>2025-12-14T00:24:27.000Z</time></trkpt>
        <trkpt lat="28.736261" lon="105.276133"><ele>267.6815</ele><time>2025-12-14T00:24:28.000Z</time></trkpt>
        <trkpt lat="28.736299" lon="105.276211"><ele>267.82315</ele><time>2025-12-14T00:24:29.000Z</time></trkpt>
        <trkpt lat="28.73634" lon="105.276279"><ele>267.90292</ele><time>2025-12-14T00:24:30.000Z</time></trkpt>
        <trkpt lat="28.736387" lon="105.276346"><ele>267.92984</ele><time>2025-12-14T00:24:31.000Z</time></trkpt>
        <trkpt lat="28.736437" lon="105.276419"><ele>267.76282</ele><time>2025-12-14T00:24:32.000Z</time></trkpt>
        <trkpt lat="28.736489" lon="105.276495"><ele>267.51193</ele><time>2025-12-14T00:24:33.000Z</time></trkpt>
        <trkpt lat="28.736552" lon="105.276574"><ele>267.25488</ele><time>2025-12-14T00:24:34.000Z</time></trkpt>
        <trkpt lat="28.736625" lon="105.276651"><ele>267.05566</ele><time>2025-12-14T00:24:35.000Z</time></trkpt>
        <trkpt lat="28.736697" lon="105.27673"><ele>266.91898</ele><time>2025-12-14T00:24:36.000Z</time></trkpt>
        <trkpt lat="28.736765" lon="105.276801"><ele>266.69376</ele><time>2025-12-14T00:24:37.000Z</time></trkpt>
        <trkpt lat="28.736831" lon="105.276875"><ele>266.77374</ele><time>2025-12-14T00:24:38.000Z</time></trkpt>
        <trkpt lat="28.7369" lon="105.276952"><ele>266.76263</ele><time>2025-12-14T00:24:39.000Z</time></trkpt>
        <trkpt lat="28.736963" lon="105.277025"><ele>266.82098</ele><time>2025-12-14T00:24:40.000Z</time></trkpt>
        <trkpt lat="28.737025" lon="105.277096"><ele>266.796</ele><time>2025-12-14T00:24:41.000Z</time></trkpt>
        <trkpt lat="28.737089" lon="105.277161"><ele>267.0831</ele><time>2025-12-14T00:24:42.000Z</time></trkpt>
        <trkpt lat="28.737148" lon="105.277227"><ele>266.8395</ele><time>2025-12-14T00:24:43.000Z</time></trkpt>
        <trkpt lat="28.7372" lon="105.27729"><ele>266.83347</ele><time>2025-12-14T00:24:44.000Z</time></trkpt>
        <trkpt lat="28.73725" lon="105.277356"><ele>266.56268</ele><time>2025-12-14T00:24:45.000Z</time></trkpt>
        <trkpt lat="28.737308" lon="105.277432"><ele>266.19272</ele><time>2025-12-14T00:24:46.000Z</time></trkpt>
        <trkpt lat="28.737363" lon="105.277524"><ele>265.6852</ele><time>2025-12-14T00:24:47.000Z</time></trkpt>
        <trkpt lat="28.737413" lon="105.277611"><ele>265.3088</ele><time>2025-12-14T00:24:48.000Z</time></trkpt>
        <trkpt lat="28.737469" lon="105.2777"><ele>265.10806</ele><time>2025-12-14T00:24:49.000Z</time></trkpt>
        <trkpt lat="28.73751" lon="105.277774"><ele>264.31235</ele><time>2025-12-14T00:24:50.000Z</time></trkpt>
        <trkpt lat="28.73755" lon="105.27785"><ele>264.04117</ele><time>2025-12-14T00:24:51.000Z</time></trkpt>
        <trkpt lat="28.737591" lon="105.277927"><ele>264.0481</ele><time>2025-12-14T00:24:52.000Z</time></trkpt>
        <trkpt lat="28.737644" lon="105.278014"><ele>263.8962</ele><time>2025-12-14T00:24:53.000Z</time></trkpt>
        <trkpt lat="28.737701" lon="105.278116"><ele>263.6042</ele><time>2025-12-14T00:24:54.000Z</time></trkpt>
        <trkpt lat="28.737762" lon="105.278226"><ele>263.22357</ele><time>2025-12-14T00:24:55.000Z</time></trkpt>
        <trkpt lat="28.737807" lon="105.278321"><ele>263.2627</ele><time>2025-12-14T00:24:56.000Z</time></trkpt>
        <trkpt lat="28.737864" lon="105.278418"><ele>263.295</ele><time>2025-12-14T00:24:57.000Z</time></trkpt>
        <trkpt lat="28.737918" lon="105.278523"><ele>263.0246</ele><time>2025-12-14T00:24:58.000Z</time></trkpt>
        <trkpt lat="28.737965" lon="105.27862"><ele>263.96063</ele><time>2025-12-14T00:24:59.000Z</time></trkpt>
        <trkpt lat="28.738012" lon="105.278723"><ele>263.42157</ele><time>2025-12-14T00:25:00.000Z</time></trkpt>
        <trkpt lat="28.738062" lon="105.278818"><ele>262.86252</ele><time>2025-12-14T00:25:01.000Z</time></trkpt>
        <trkpt lat="28.73811" lon="105.278907"><ele>263.2587</ele><time>2025-12-14T00:25:02.000Z</time></trkpt>
        <trkpt lat="28.738168" lon="105.278995"><ele>263.10324</ele><time>2025-12-14T00:25:03.000Z</time></trkpt>
        <trkpt lat="28.738229" lon="105.279087"><ele>262.88654</ele><time>2025-12-14T00:25:04.000Z</time></trkpt>
        <trkpt lat="28.738286" lon="105.279178"><ele>262.91397</ele><time>2025-12-14T00:25:05.000Z</time></trkpt>
        <trkpt lat="28.73835" lon="105.279265"><ele>262.30402</ele><time>2025-12-14T00:25:06.000Z</time></trkpt>
        <trkpt lat="28.738404" lon="105.279363"><ele>261.9134</ele><time>2025-12-14T00:25:07.000Z</time></trkpt>
        <trkpt lat="28.738454" lon="105.27946"><ele>261.47867</ele><time>2025-12-14T00:25:08.000Z</time></trkpt>
        <trkpt lat="28.738493" lon="105.279561"><ele>261.31305</ele><time>2025-12-14T00:25:09.000Z</time></trkpt>
        <trkpt lat="28.73853" lon="105.279662"><ele>261.15836</ele><time>2025-12-14T00:25:10.000Z</time></trkpt>
        <trkpt lat="28.73857" lon="105.279769"><ele>260.9748</ele><time>2025-12-14T00:25:11.000Z</time></trkpt>
        <trkpt lat="28.738618" lon="105.279873"><ele>261.05225</ele><time>2025-12-14T00:25:12.000Z</time></trkpt>
        <trkpt lat="28.738667" lon="105.279976"><ele>260.6951</ele><time>2025-12-14T00:25:13.000Z</time></trkpt>
        <trkpt lat="28.738707" lon="105.280077"><ele>260.48993</ele><time>2025-12-14T00:25:14.000Z</time></trkpt>
        <trkpt lat="28.738745" lon="105.280175"><ele>260.70963</ele><time>2025-12-14T00:25:15.000Z</time></trkpt>
        <trkpt lat="28.738791" lon="105.280271"><ele>260.10086</ele><time>2025-12-14T00:25:16.000Z</time></trkpt>
        <trkpt lat="28.738833" lon="105.280371"><ele>260.07306</ele><time>2025-12-14T00:25:17.000Z</time></trkpt>
        <trkpt lat="28.738806" lon="105.280484"><ele>259.6383</ele><time>2025-12-14T00:25:18.000Z</time></trkpt>
        <trkpt lat="28.738846" lon="105.280581"><ele>260.5578</ele><time>2025-12-14T00:25:19.000Z</time></trkpt>
        <trkpt lat="28.73889" lon="105.280671"><ele>261.1772</ele><time>2025-12-14T00:25:20.000Z</time></trkpt>
        <trkpt lat="28.738935" lon="105.280762"><ele>261.90796</ele><time>2025-12-14T00:25:21.000Z</time></trkpt>
        <trkpt lat="28.738983" lon="105.280855"><ele>262.4464</ele><time>2025-12-14T00:25:22.000Z</time></trkpt>
        <trkpt lat="28.739032" lon="105.280951"><ele>262.56552</ele><time>2025-12-14T00:25:23.000Z</time></trkpt>
        <trkpt lat="28.739081" lon="105.281041"><ele>262.9688</ele><time>2025-12-14T00:25:24.000Z</time></trkpt>
        <trkpt lat="28.739133" lon="105.281124"><ele>262.9267</ele><time>2025-12-14T00:25:25.000Z</time></trkpt>
        <trkpt lat="28.73919" lon="105.281207"><ele>264.00604</ele><time>2025-12-14T00:25:26.000Z</time></trkpt>
        <trkpt lat="28.739239" lon="105.281286"><ele>264.12527</ele><time>2025-12-14T00:25:27.000Z</time></trkpt>
        <trkpt lat="28.739287" lon="105.281362"><ele>263.69986</ele><time>2025-12-14T00:25:28.000Z</time></trkpt>
        <trkpt lat="28.739344" lon="105.281438"><ele>263.5819</ele><time>2025-12-14T00:25:29.000Z</time></trkpt>
        <trkpt lat="28.739401" lon="105.281515"><ele>262.89713</ele><time>2025-12-14T00:25:30.000Z</time></trkpt>
        <trkpt lat="28.739466" lon="105.281593"><ele>262.7725</ele><time>2025-12-14T00:25:31.000Z</time></trkpt>
        <trkpt lat="28.739539" lon="105.281681"><ele>262.11755</ele><time>2025-12-14T00:25:32.000Z</time></trkpt>
        <trkpt lat="28.739607" lon="105.281761"><ele>261.357</ele><time>2025-12-14T00:25:33.000Z</time></trkpt>
        <trkpt lat="28.73967" lon="105.281833"><ele>260.9476</ele><time>2025-12-14T00:25:34.000Z</time></trkpt>
        <trkpt lat="28.739735" lon="105.281908"><ele>260.44058</ele><time>2025-12-14T00:25:35.000Z</time></trkpt>
        <trkpt lat="28.739802" lon="105.281978"><ele>260.83868</ele><time>2025-12-14T00:25:36.000Z</time></trkpt>
        <trkpt lat="28.739865" lon="105.282055"><ele>260.44394</ele><time>2025-12-14T00:25:37.000Z</time></trkpt>
        <trkpt lat="28.739922" lon="105.282134"><ele>260.36664</ele><time>2025-12-14T00:25:38.000Z</time></trkpt>
        <trkpt lat="28.739978" lon="105.282212"><ele>261.14252</ele><time>2025-12-14T00:25:39.000Z</time></trkpt>
        <trkpt lat="28.740036" lon="105.282292"><ele>261.7751</ele><time>2025-12-14T00:25:40.000Z</time></trkpt>
        <trkpt lat="28.740085" lon="105.282353"><ele>262.07117</ele><time>2025-12-14T00:25:41.000Z</time></trkpt>
        <trkpt lat="28.740115" lon="105.282393"><ele>262.47195</ele><time>2025-12-14T00:25:42.000Z</time></trkpt>
        <trkpt lat="28.740163" lon="105.282469"><ele>263.1864</ele><time>2025-12-14T00:25:43.000Z</time></trkpt>
        <trkpt lat="28.740201" lon="105.282544"><ele>263.7776</ele><time>2025-12-14T00:25:44.000Z</time></trkpt>
        <trkpt lat="28.740244" lon="105.282638"><ele>263.8861</ele><time>2025-12-14T00:25:45.000Z</time></trkpt>
        <trkpt lat="28.740292" lon="105.282744"><ele>264.38986</ele><time>2025-12-14T00:25:46.000Z</time></trkpt>
        <trkpt lat="28.740318" lon="105.282851"><ele>264.86298</ele><time>2025-12-14T00:25:47.000Z</time></trkpt>
        <trkpt lat="28.740365" lon="105.282965"><ele>264.98132</ele><time>2025-12-14T00:25:48.000Z</time></trkpt>
        <trkpt lat="28.740412" lon="105.283074"><ele>265.09064</ele><time>2025-12-14T00:25:49.000Z</time></trkpt>
        <trkpt lat="28.740463" lon="105.283184"><ele>265.2449</ele><time>2025-12-14T00:25:50.000Z</time></trkpt>
        <trkpt lat="28.740508" lon="105.28329"><ele>264.8466</ele><time>2025-12-14T00:25:51.000Z</time></trkpt>
        <trkpt lat="28.740554" lon="105.283404"><ele>264.8097</ele><time>2025-12-14T00:25:52.000Z</time></trkpt>
        <trkpt lat="28.740609" lon="105.283532"><ele>264.87164</ele><time>2025-12-14T00:25:53.000Z</time></trkpt>
        <trkpt lat="28.740669" lon="105.283657"><ele>264.8639</ele><time>2025-12-14T00:25:54.000Z</time></trkpt>
        <trkpt lat="28.740725" lon="105.283763"><ele>264.2747</ele><time>2025-12-14T00:25:55.000Z</time></trkpt>
        <trkpt lat="28.740776" lon="105.283865"><ele>263.88098</ele><time>2025-12-14T00:25:56.000Z</time></trkpt>
        <trkpt lat="28.740824" lon="105.283953"><ele>263.64667</ele><time>2025-12-14T00:25:57.000Z</time></trkpt>
        <trkpt lat="28.740866" lon="105.284043"><ele>262.98938</ele><time>2025-12-14T00:25:58.000Z</time></trkpt>
        <trkpt lat="28.740907" lon="105.284149"><ele>262.22128</ele><time>2025-12-14T00:25:59.000Z</time></trkpt>
        <trkpt lat="28.740948" lon="105.284248"><ele>261.9111</ele><time>2025-12-14T00:26:00.000Z</time></trkpt>
        <trkpt lat="28.740989" lon="105.284336"><ele>261.16016</ele><time>2025-12-14T00:26:01.000Z</time></trkpt>
        <trkpt lat="28.741024" lon="105.284428"><ele>261.07904</ele><time>2025-12-14T00:26:02.000Z</time></trkpt>
        <trkpt lat="28.741058" lon="105.284528"><ele>260.6205</ele><time>2025-12-14T00:26:03.000Z</time></trkpt>
        <trkpt lat="28.741092" lon="105.284628"><ele>260.68353</ele><time>2025-12-14T00:26:04.000Z</time></trkpt>
        <trkpt lat="28.741128" lon="105.284727"><ele>260.4421</ele><time>2025-12-14T00:26:05.000Z</time></trkpt>
        <trkpt lat="28.74116" lon="105.284816"><ele>260.01675</ele><time>2025-12-14T00:26:06.000Z</time></trkpt>
        <trkpt lat="28.741196" lon="105.284908"><ele>259.6435</ele><time>2025-12-14T00:26:07.000Z</time></trkpt>
        <trkpt lat="28.741232" lon="105.284985"><ele>259.63953</ele><time>2025-12-14T00:26:08.000Z</time></trkpt>
        <trkpt lat="28.741264" lon="105.28505"><ele>258.70538</ele><time>2025-12-14T00:26:09.000Z</time></trkpt>
        <trkpt lat="28.741283" lon="105.285102"><ele>258.7264</ele><time>2025-12-14T00:26:10.000Z</time></trkpt>
        <trkpt lat="28.741315" lon="105.285161"><ele>257.90012</ele><time>2025-12-14T00:26:12.000Z</time></trkpt>
        <trkpt lat="28.741275" lon="105.285134"><ele>258.52737</ele><time>2025-12-14T00:26:23.000Z</time></trkpt>
        <trkpt lat="28.741264" lon="105.285078"><ele>258.813</ele><time>2025-12-14T00:26:34.000Z</time></trkpt>
        <trkpt lat="28.741223" lon="105.285031"><ele>258.73947</ele><time>2025-12-14T00:26:46.000Z</time></trkpt>
        <trkpt lat="28.741206" lon="105.284982"><ele>259.6965</ele><time>2025-12-14T00:26:51.000Z</time></trkpt>
        <trkpt lat="28.741192" lon="105.284928"><ele>259.9536</ele><time>2025-12-14T00:26:57.000Z</time></trkpt>
        <trkpt lat="28.741175" lon="105.284867"><ele>259.59705</ele><time>2025-12-14T00:27:02.000Z</time></trkpt>
        <trkpt lat="28.741147" lon="105.284816"><ele>260.05237</ele><time>2025-12-14T00:27:07.000Z</time></trkpt>
        <trkpt lat="28.741131" lon="105.284766"><ele>261.02396</ele><time>2025-12-14T00:27:11.000Z</time></trkpt>
        <trkpt lat="28.741109" lon="105.28471"><ele>260.6751</ele><time>2025-12-14T00:27:16.000Z</time></trkpt>
        <trkpt lat="28.741086" lon="105.284651"><ele>261.5734</ele><time>2025-12-14T00:27:21.000Z</time></trkpt>
        <trkpt lat="28.741074" lon="105.284588"><ele>262.09763</ele><time>2025-12-14T00:27:26.000Z</time></trkpt>
        <trkpt lat="28.741059" lon="105.284529"><ele>263.5122</ele><time>2025-12-14T00:27:31.000Z</time></trkpt>
        <trkpt lat="28.741034" lon="105.28448"><ele>262.35773</ele><time>2025-12-14T00:27:35.000Z</time></trkpt>
        <trkpt lat="28.741015" lon="105.28443"><ele>263.0999</ele><time>2025-12-14T00:27:40.000Z</time></trkpt>
        <trkpt lat="28.740988" lon="105.284381"><ele>262.99377</ele><time>2025-12-14T00:27:45.000Z</time></trkpt>
        <trkpt lat="28.740968" lon="105.284322"><ele>262.7894</ele><time>2025-12-14T00:27:50.000Z</time></trkpt>
        <trkpt lat="28.740949" lon="105.284265"><ele>262.3216</ele><time>2025-12-14T00:27:56.000Z</time></trkpt>
        <trkpt lat="28.740926" lon="105.284218"><ele>262.5721</ele><time>2025-12-14T00:28:01.000Z</time></trkpt>
        <trkpt lat="28.740897" lon="105.284168"><ele>262.70773</ele><time>2025-12-14T00:28:06.000Z</time></trkpt>
        <trkpt lat="28.740848" lon="105.284167"><ele>263.5486</ele><time>2025-12-14T00:28:16.000Z</time></trkpt>
        <trkpt lat="28.740803" lon="105.284169"><ele>264.66306</ele><time>2025-12-14T00:29:15.000Z</time></trkpt>
      </trkseg>
  </trk>
</gpx>